<?xml version="1.0" encoding="UTF-8" standalone="no" ?>
<gpx xmlns="http://www.topografix.com/GPX/1/1" xmlns:xsi="http://www.w3.org/2001/XMLSchema-instance" xsi:schemaLocation="http://www.topografix.com/GPX/1/1 http://www.topografix.com/GPX/1/1/gpx.xsd" version="1.1" creator="VisuGPX - https://www.visugpx.com">
  <metadata>
    <name>Moto du 08/03/2015 </name>
    <desc><![CDATA[Avec Roumègue et les Albigeois ]]></desc>
  </metadata>
  <trk>
    <name><![CDATA[Moto du 08/03/2015 _1]]></name>
    <trkseg>
      <trkpt lat="43.95323" lon="1.86857">
        <ele>257</ele>
        <time>2015-03-08T07:52:26Z</time>
      </trkpt>
      <trkpt lat="43.9531" lon="1.86893">
        <ele>286</ele>
        <time>2015-03-08T07:52:46Z</time>
      </trkpt>
      <trkpt lat="43.95354" lon="1.86959">
        <ele>276</ele>
        <time>2015-03-08T07:52:57Z</time>
      </trkpt>
      <trkpt lat="43.95419" lon="1.87055">
        <ele>274</ele>
        <time>2015-03-08T07:53:07Z</time>
      </trkpt>
      <trkpt lat="43.95375" lon="1.87251">
        <ele>274</ele>
        <time>2015-03-08T07:53:18Z</time>
      </trkpt>
      <trkpt lat="43.95414" lon="1.87372">
        <ele>274</ele>
        <time>2015-03-08T07:53:28Z</time>
      </trkpt>
      <trkpt lat="43.95352" lon="1.87499">
        <ele>281</ele>
        <time>2015-03-08T07:53:38Z</time>
      </trkpt>
      <trkpt lat="43.95296" lon="1.8758">
        <ele>281</ele>
        <time>2015-03-08T07:53:49Z</time>
      </trkpt>
      <trkpt lat="43.95259" lon="1.87647">
        <ele>280</ele>
        <time>2015-03-08T07:53:59Z</time>
      </trkpt>
      <trkpt lat="43.9525" lon="1.8768">
        <ele>280</ele>
        <time>2015-03-08T07:54:09Z</time>
      </trkpt>
      <trkpt lat="43.95226" lon="1.87717">
        <ele>281</ele>
        <time>2015-03-08T07:54:19Z</time>
      </trkpt>
      <trkpt lat="43.952" lon="1.87744">
        <ele>286</ele>
        <time>2015-03-08T07:54:29Z</time>
      </trkpt>
      <trkpt lat="43.95149" lon="1.87794">
        <ele>288</ele>
        <time>2015-03-08T07:54:39Z</time>
      </trkpt>
      <trkpt lat="43.95092" lon="1.87863">
        <ele>281</ele>
        <time>2015-03-08T07:54:49Z</time>
      </trkpt>
      <trkpt lat="43.94996" lon="1.87953">
        <ele>273</ele>
        <time>2015-03-08T07:54:59Z</time>
      </trkpt>
      <trkpt lat="43.9492" lon="1.88075">
        <ele>271</ele>
        <time>2015-03-08T07:55:09Z</time>
      </trkpt>
      <trkpt lat="43.94845" lon="1.88189">
        <ele>270</ele>
        <time>2015-03-08T07:55:19Z</time>
      </trkpt>
      <trkpt lat="43.94804" lon="1.88329">
        <ele>268</ele>
        <time>2015-03-08T07:55:29Z</time>
      </trkpt>
      <trkpt lat="43.94785" lon="1.88518">
        <ele>261</ele>
        <time>2015-03-08T07:55:40Z</time>
      </trkpt>
      <trkpt lat="43.94768" lon="1.88716">
        <ele>259</ele>
        <time>2015-03-08T07:55:50Z</time>
      </trkpt>
      <trkpt lat="43.94714" lon="1.88875">
        <ele>249</ele>
        <time>2015-03-08T07:56:00Z</time>
      </trkpt>
      <trkpt lat="43.94679" lon="1.89066">
        <ele>243</ele>
        <time>2015-03-08T07:56:10Z</time>
      </trkpt>
      <trkpt lat="43.9461" lon="1.89257">
        <ele>240</ele>
        <time>2015-03-08T07:56:20Z</time>
      </trkpt>
      <trkpt lat="43.94545" lon="1.89432">
        <ele>239</ele>
        <time>2015-03-08T07:56:30Z</time>
      </trkpt>
      <trkpt lat="43.94488" lon="1.89601">
        <ele>240</ele>
        <time>2015-03-08T07:56:40Z</time>
      </trkpt>
      <trkpt lat="43.9445" lon="1.89774">
        <ele>240</ele>
        <time>2015-03-08T07:56:50Z</time>
      </trkpt>
      <trkpt lat="43.94432" lon="1.89881">
        <ele>230</ele>
        <time>2015-03-08T07:57:01Z</time>
      </trkpt>
      <trkpt lat="43.944" lon="1.89885">
        <ele>229</ele>
        <time>2015-03-08T07:57:11Z</time>
      </trkpt>
      <trkpt lat="43.94362" lon="1.89961">
        <ele>228</ele>
        <time>2015-03-08T07:57:21Z</time>
      </trkpt>
      <trkpt lat="43.94307" lon="1.90043">
        <ele>226</ele>
        <time>2015-03-08T07:57:31Z</time>
      </trkpt>
      <trkpt lat="43.94271" lon="1.90125">
        <ele>225</ele>
        <time>2015-03-08T07:57:41Z</time>
      </trkpt>
      <trkpt lat="43.94294" lon="1.90169">
        <ele>223</ele>
        <time>2015-03-08T07:57:51Z</time>
      </trkpt>
      <trkpt lat="43.94357" lon="1.90199">
        <ele>216</ele>
        <time>2015-03-08T07:58:01Z</time>
      </trkpt>
      <trkpt lat="43.94352" lon="1.90319">
        <ele>206</ele>
        <time>2015-03-08T07:58:12Z</time>
      </trkpt>
      <trkpt lat="43.94453" lon="1.90444">
        <ele>201</ele>
        <time>2015-03-08T07:58:23Z</time>
      </trkpt>
      <trkpt lat="43.94426" lon="1.9057">
        <ele>194</ele>
        <time>2015-03-08T07:58:33Z</time>
      </trkpt>
      <trkpt lat="43.94415" lon="1.90722">
        <ele>184</ele>
        <time>2015-03-08T07:58:44Z</time>
      </trkpt>
      <trkpt lat="43.9447" lon="1.90876">
        <ele>173</ele>
        <time>2015-03-08T07:58:54Z</time>
      </trkpt>
      <trkpt lat="43.94583" lon="1.90969">
        <ele>162</ele>
        <time>2015-03-08T07:59:05Z</time>
      </trkpt>
      <trkpt lat="43.94648" lon="1.91105">
        <ele>158</ele>
        <time>2015-03-08T07:59:15Z</time>
      </trkpt>
      <trkpt lat="43.94742" lon="1.91256">
        <ele>165</ele>
        <time>2015-03-08T07:59:26Z</time>
      </trkpt>
      <trkpt lat="43.94817" lon="1.91323">
        <ele>176</ele>
        <time>2015-03-08T07:59:36Z</time>
      </trkpt>
      <trkpt lat="43.9489" lon="1.91413">
        <ele>186</ele>
        <time>2015-03-08T07:59:47Z</time>
      </trkpt>
      <trkpt lat="43.94949" lon="1.91509">
        <ele>203</ele>
        <time>2015-03-08T07:59:58Z</time>
      </trkpt>
      <trkpt lat="43.95017" lon="1.91592">
        <ele>214</ele>
        <time>2015-03-08T08:00:08Z</time>
      </trkpt>
      <trkpt lat="43.95122" lon="1.91672">
        <ele>218</ele>
        <time>2015-03-08T08:00:18Z</time>
      </trkpt>
      <trkpt lat="43.95206" lon="1.91738">
        <ele>228</ele>
        <time>2015-03-08T08:00:29Z</time>
      </trkpt>
      <trkpt lat="43.9511" lon="1.91832">
        <ele>232</ele>
        <time>2015-03-08T08:00:39Z</time>
      </trkpt>
      <trkpt lat="43.95014" lon="1.91944">
        <ele>231</ele>
        <time>2015-03-08T08:00:49Z</time>
      </trkpt>
      <trkpt lat="43.94933" lon="1.92092">
        <ele>231</ele>
        <time>2015-03-08T08:00:59Z</time>
      </trkpt>
      <trkpt lat="43.94851" lon="1.92192">
        <ele>231</ele>
        <time>2015-03-08T08:01:09Z</time>
      </trkpt>
      <trkpt lat="43.94762" lon="1.92225">
        <ele>232</ele>
        <time>2015-03-08T08:01:19Z</time>
      </trkpt>
      <trkpt lat="43.94647" lon="1.92293">
        <ele>232</ele>
        <time>2015-03-08T08:01:29Z</time>
      </trkpt>
      <trkpt lat="43.94557" lon="1.92407">
        <ele>229</ele>
        <time>2015-03-08T08:01:39Z</time>
      </trkpt>
      <trkpt lat="43.94455" lon="1.92444">
        <ele>219</ele>
        <time>2015-03-08T08:01:50Z</time>
      </trkpt>
      <trkpt lat="43.94444" lon="1.92445">
        <ele>214</ele>
        <time>2015-03-08T08:02:05Z</time>
      </trkpt>
      <trkpt lat="43.94393" lon="1.92407">
        <ele>214</ele>
        <time>2015-03-08T08:02:15Z</time>
      </trkpt>
      <trkpt lat="43.9432" lon="1.92353">
        <ele>217</ele>
        <time>2015-03-08T08:02:25Z</time>
      </trkpt>
      <trkpt lat="43.94264" lon="1.92243">
        <ele>218</ele>
        <time>2015-03-08T08:02:35Z</time>
      </trkpt>
      <trkpt lat="43.9424" lon="1.92197">
        <ele>212</ele>
        <time>2015-03-08T08:02:45Z</time>
      </trkpt>
      <trkpt lat="43.94218" lon="1.92191">
        <ele>205</ele>
        <time>2015-03-08T08:03:16Z</time>
      </trkpt>
      <trkpt lat="43.94222" lon="1.92208">
        <ele>205</ele>
        <time>2015-03-08T08:03:26Z</time>
      </trkpt>
      <trkpt lat="43.94268" lon="1.9225">
        <ele>207</ele>
        <time>2015-03-08T08:03:36Z</time>
      </trkpt>
      <trkpt lat="43.9432" lon="1.92345">
        <ele>212</ele>
        <time>2015-03-08T08:03:46Z</time>
      </trkpt>
      <trkpt lat="43.94418" lon="1.92417">
        <ele>212</ele>
        <time>2015-03-08T08:03:57Z</time>
      </trkpt>
      <trkpt lat="43.94457" lon="1.92453">
        <ele>212</ele>
        <time>2015-03-08T08:04:07Z</time>
      </trkpt>
      <trkpt lat="43.94505" lon="1.92643">
        <ele>215</ele>
        <time>2015-03-08T08:04:17Z</time>
      </trkpt>
      <trkpt lat="43.94493" lon="1.92816">
        <ele>214</ele>
        <time>2015-03-08T08:04:27Z</time>
      </trkpt>
      <trkpt lat="43.94437" lon="1.9292">
        <ele>204</ele>
        <time>2015-03-08T08:04:37Z</time>
      </trkpt>
      <trkpt lat="43.9442" lon="1.93068">
        <ele>194</ele>
        <time>2015-03-08T08:04:47Z</time>
      </trkpt>
      <trkpt lat="43.94483" lon="1.93177">
        <ele>184</ele>
        <time>2015-03-08T08:04:58Z</time>
      </trkpt>
      <trkpt lat="43.94548" lon="1.93153">
        <ele>173</ele>
        <time>2015-03-08T08:05:08Z</time>
      </trkpt>
      <trkpt lat="43.94605" lon="1.93148">
        <ele>166</ele>
        <time>2015-03-08T08:05:26Z</time>
      </trkpt>
      <trkpt lat="43.94706" lon="1.93085">
        <ele>164</ele>
        <time>2015-03-08T08:05:36Z</time>
      </trkpt>
      <trkpt lat="43.94804" lon="1.93093">
        <ele>164</ele>
        <time>2015-03-08T08:05:46Z</time>
      </trkpt>
      <trkpt lat="43.94856" lon="1.93082">
        <ele>162</ele>
        <time>2015-03-08T08:05:56Z</time>
      </trkpt>
      <trkpt lat="43.94924" lon="1.93079">
        <ele>161</ele>
        <time>2015-03-08T08:06:06Z</time>
      </trkpt>
      <trkpt lat="43.95095" lon="1.93095">
        <ele>161</ele>
        <time>2015-03-08T08:06:16Z</time>
      </trkpt>
      <trkpt lat="43.95207" lon="1.9316">
        <ele>162</ele>
        <time>2015-03-08T08:06:27Z</time>
      </trkpt>
      <trkpt lat="43.95291" lon="1.93257">
        <ele>163</ele>
        <time>2015-03-08T08:06:37Z</time>
      </trkpt>
      <trkpt lat="43.95214" lon="1.93384">
        <ele>163</ele>
        <time>2015-03-08T08:06:47Z</time>
      </trkpt>
      <trkpt lat="43.95089" lon="1.93547">
        <ele>161</ele>
        <time>2015-03-08T08:06:57Z</time>
      </trkpt>
      <trkpt lat="43.95009" lon="1.93716">
        <ele>161</ele>
        <time>2015-03-08T08:07:07Z</time>
      </trkpt>
      <trkpt lat="43.94884" lon="1.93824">
        <ele>164</ele>
        <time>2015-03-08T08:07:17Z</time>
      </trkpt>
      <trkpt lat="43.94753" lon="1.93944">
        <ele>171</ele>
        <time>2015-03-08T08:07:27Z</time>
      </trkpt>
      <trkpt lat="43.94669" lon="1.94014">
        <ele>179</ele>
        <time>2015-03-08T08:07:37Z</time>
      </trkpt>
      <trkpt lat="43.94566" lon="1.94244">
        <ele>181</ele>
        <time>2015-03-08T08:07:47Z</time>
      </trkpt>
      <trkpt lat="43.94519" lon="1.94271">
        <ele>181</ele>
        <time>2015-03-08T08:07:57Z</time>
      </trkpt>
      <trkpt lat="43.94473" lon="1.94433">
        <ele>186</ele>
        <time>2015-03-08T08:08:07Z</time>
      </trkpt>
      <trkpt lat="43.94451" lon="1.94609">
        <ele>196</ele>
        <time>2015-03-08T08:08:18Z</time>
      </trkpt>
      <trkpt lat="43.94502" lon="1.94681">
        <ele>204</ele>
        <time>2015-03-08T08:08:28Z</time>
      </trkpt>
      <trkpt lat="43.94446" lon="1.94707">
        <ele>206</ele>
        <time>2015-03-08T08:08:38Z</time>
      </trkpt>
      <trkpt lat="43.9435" lon="1.94765">
        <ele>206</ele>
        <time>2015-03-08T08:08:49Z</time>
      </trkpt>
      <trkpt lat="43.94321" lon="1.94788">
        <ele>203</ele>
        <time>2015-03-08T08:09:03Z</time>
      </trkpt>
      <trkpt lat="43.94325" lon="1.94784">
        <ele>216</ele>
        <time>2015-03-08T08:09:30Z</time>
      </trkpt>
      <trkpt lat="43.94325" lon="1.94786">
        <ele>220</ele>
        <time>2015-03-08T08:09:50Z</time>
      </trkpt>
      <trkpt lat="43.94325" lon="1.94788">
        <ele>220</ele>
        <time>2015-03-08T08:10:05Z</time>
      </trkpt>
      <trkpt lat="43.94324" lon="1.94789">
        <ele>220</ele>
        <time>2015-03-08T08:11:02Z</time>
      </trkpt>
      <trkpt lat="43.94323" lon="1.9479">
        <ele>220</ele>
        <time>2015-03-08T08:11:23Z</time>
      </trkpt>
      <trkpt lat="43.94323" lon="1.94792">
        <ele>220</ele>
        <time>2015-03-08T08:11:49Z</time>
      </trkpt>
      <trkpt lat="43.94323" lon="1.9479">
        <ele>218</ele>
        <time>2015-03-08T08:12:29Z</time>
      </trkpt>
      <trkpt lat="43.94323" lon="1.94787">
        <ele>218</ele>
        <time>2015-03-08T08:12:49Z</time>
      </trkpt>
      <trkpt lat="43.94323" lon="1.94786">
        <ele>218</ele>
        <time>2015-03-08T08:13:15Z</time>
      </trkpt>
      <trkpt lat="43.94323" lon="1.94787">
        <ele>218</ele>
        <time>2015-03-08T08:13:32Z</time>
      </trkpt>
      <trkpt lat="43.94323" lon="1.94789">
        <ele>218</ele>
        <time>2015-03-08T08:13:43Z</time>
      </trkpt>
      <trkpt lat="43.94323" lon="1.9479">
        <ele>216</ele>
        <time>2015-03-08T08:13:54Z</time>
      </trkpt>
      <trkpt lat="43.94323" lon="1.94792">
        <ele>214</ele>
        <time>2015-03-08T08:14:07Z</time>
      </trkpt>
      <trkpt lat="43.94323" lon="1.94793">
        <ele>211</ele>
        <time>2015-03-08T08:14:29Z</time>
      </trkpt>
      <trkpt lat="43.94323" lon="1.94795">
        <ele>209</ele>
        <time>2015-03-08T08:14:48Z</time>
      </trkpt>
      <trkpt lat="43.94323" lon="1.94796">
        <ele>207</ele>
        <time>2015-03-08T08:15:17Z</time>
      </trkpt>
      <trkpt lat="43.94323" lon="1.94798">
        <ele>206</ele>
        <time>2015-03-08T08:15:34Z</time>
      </trkpt>
      <trkpt lat="43.94323" lon="1.94796">
        <ele>205</ele>
        <time>2015-03-08T08:15:52Z</time>
      </trkpt>
      <trkpt lat="43.94322" lon="1.94788">
        <ele>207</ele>
        <time>2015-03-08T08:16:05Z</time>
      </trkpt>
      <trkpt lat="43.94322" lon="1.94787">
        <ele>208</ele>
        <time>2015-03-08T08:16:29Z</time>
      </trkpt>
      <trkpt lat="43.94322" lon="1.94785">
        <ele>209</ele>
        <time>2015-03-08T08:16:39Z</time>
      </trkpt>
      <trkpt lat="43.94322" lon="1.94787">
        <ele>211</ele>
        <time>2015-03-08T08:17:18Z</time>
      </trkpt>
      <trkpt lat="43.94323" lon="1.9479">
        <ele>210</ele>
        <time>2015-03-08T08:17:46Z</time>
      </trkpt>
      <trkpt lat="43.94323" lon="1.94791">
        <ele>209</ele>
        <time>2015-03-08T08:18:02Z</time>
      </trkpt>
      <trkpt lat="43.94323" lon="1.94793">
        <ele>208</ele>
        <time>2015-03-08T08:18:24Z</time>
      </trkpt>
      <trkpt lat="43.94323" lon="1.94794">
        <ele>207</ele>
        <time>2015-03-08T08:18:42Z</time>
      </trkpt>
      <trkpt lat="43.94323" lon="1.94796">
        <ele>205</ele>
        <time>2015-03-08T08:19:21Z</time>
      </trkpt>
      <trkpt lat="43.94324" lon="1.94797">
        <ele>203</ele>
        <time>2015-03-08T08:20:05Z</time>
      </trkpt>
      <trkpt lat="43.94325" lon="1.94799">
        <ele>201</ele>
        <time>2015-03-08T08:21:10Z</time>
      </trkpt>
      <trkpt lat="43.94325" lon="1.94797">
        <ele>201</ele>
        <time>2015-03-08T08:21:46Z</time>
      </trkpt>
      <trkpt lat="43.94326" lon="1.94796">
        <ele>201</ele>
        <time>2015-03-08T08:22:00Z</time>
      </trkpt>
      <trkpt lat="43.94325" lon="1.94794">
        <ele>201</ele>
        <time>2015-03-08T08:22:47Z</time>
      </trkpt>
      <trkpt lat="43.94324" lon="1.9479">
        <ele>204</ele>
        <time>2015-03-08T08:23:13Z</time>
      </trkpt>
      <trkpt lat="43.94324" lon="1.94792">
        <ele>204</ele>
        <time>2015-03-08T08:23:29Z</time>
      </trkpt>
      <trkpt lat="43.94326" lon="1.94793">
        <ele>204</ele>
        <time>2015-03-08T08:23:45Z</time>
      </trkpt>
      <trkpt lat="43.94326" lon="1.94795">
        <ele>204</ele>
        <time>2015-03-08T08:24:10Z</time>
      </trkpt>
      <trkpt lat="43.94326" lon="1.94797">
        <ele>204</ele>
        <time>2015-03-08T08:24:33Z</time>
      </trkpt>
      <trkpt lat="43.94326" lon="1.94793">
        <ele>204</ele>
        <time>2015-03-08T08:24:45Z</time>
      </trkpt>
      <trkpt lat="43.94324" lon="1.94789">
        <ele>204</ele>
        <time>2015-03-08T08:24:56Z</time>
      </trkpt>
      <trkpt lat="43.9432" lon="1.94791">
        <ele>203</ele>
        <time>2015-03-08T08:25:09Z</time>
      </trkpt>
      <trkpt lat="43.9432" lon="1.94795">
        <ele>203</ele>
        <time>2015-03-08T08:25:20Z</time>
      </trkpt>
      <trkpt lat="43.94318" lon="1.94807">
        <ele>202</ele>
        <time>2015-03-08T08:25:30Z</time>
      </trkpt>
      <trkpt lat="43.94318" lon="1.94897">
        <ele>200</ele>
        <time>2015-03-08T08:25:40Z</time>
      </trkpt>
      <trkpt lat="43.94336" lon="1.95012">
        <ele>195</ele>
        <time>2015-03-08T08:25:50Z</time>
      </trkpt>
      <trkpt lat="43.94381" lon="1.95026">
        <ele>192</ele>
        <time>2015-03-08T08:26:00Z</time>
      </trkpt>
      <trkpt lat="43.94472" lon="1.95014">
        <ele>192</ele>
        <time>2015-03-08T08:26:10Z</time>
      </trkpt>
      <trkpt lat="43.94585" lon="1.95038">
        <ele>189</ele>
        <time>2015-03-08T08:26:20Z</time>
      </trkpt>
      <trkpt lat="43.94684" lon="1.95123">
        <ele>191</ele>
        <time>2015-03-08T08:26:30Z</time>
      </trkpt>
      <trkpt lat="43.94783" lon="1.95146">
        <ele>187</ele>
        <time>2015-03-08T08:26:40Z</time>
      </trkpt>
      <trkpt lat="43.94895" lon="1.95119">
        <ele>181</ele>
        <time>2015-03-08T08:26:50Z</time>
      </trkpt>
      <trkpt lat="43.94997" lon="1.95122">
        <ele>175</ele>
        <time>2015-03-08T08:27:00Z</time>
      </trkpt>
      <trkpt lat="43.95008" lon="1.95154">
        <ele>172</ele>
        <time>2015-03-08T08:27:13Z</time>
      </trkpt>
      <trkpt lat="43.95009" lon="1.95196">
        <ele>172</ele>
        <time>2015-03-08T08:27:23Z</time>
      </trkpt>
      <trkpt lat="43.95029" lon="1.95324">
        <ele>172</ele>
        <time>2015-03-08T08:27:33Z</time>
      </trkpt>
      <trkpt lat="43.95048" lon="1.95492">
        <ele>166</ele>
        <time>2015-03-08T08:27:43Z</time>
      </trkpt>
      <trkpt lat="43.95105" lon="1.95665">
        <ele>165</ele>
        <time>2015-03-08T08:27:53Z</time>
      </trkpt>
      <trkpt lat="43.95057" lon="1.95831">
        <ele>170</ele>
        <time>2015-03-08T08:28:03Z</time>
      </trkpt>
      <trkpt lat="43.94994" lon="1.95989">
        <ele>183</ele>
        <time>2015-03-08T08:28:13Z</time>
      </trkpt>
      <trkpt lat="43.94952" lon="1.96109">
        <ele>193</ele>
        <time>2015-03-08T08:28:23Z</time>
      </trkpt>
      <trkpt lat="43.94968" lon="1.96178">
        <ele>201</ele>
        <time>2015-03-08T08:28:33Z</time>
      </trkpt>
      <trkpt lat="43.94916" lon="1.96284">
        <ele>205</ele>
        <time>2015-03-08T08:28:43Z</time>
      </trkpt>
      <trkpt lat="43.94976" lon="1.96436">
        <ele>206</ele>
        <time>2015-03-08T08:28:53Z</time>
      </trkpt>
      <trkpt lat="43.95029" lon="1.96532">
        <ele>207</ele>
        <time>2015-03-08T08:29:03Z</time>
      </trkpt>
      <trkpt lat="43.9511" lon="1.96617">
        <ele>210</ele>
        <time>2015-03-08T08:29:13Z</time>
      </trkpt>
      <trkpt lat="43.95173" lon="1.96737">
        <ele>207</ele>
        <time>2015-03-08T08:29:23Z</time>
      </trkpt>
      <trkpt lat="43.95259" lon="1.96836">
        <ele>197</ele>
        <time>2015-03-08T08:29:33Z</time>
      </trkpt>
      <trkpt lat="43.95306" lon="1.96925">
        <ele>187</ele>
        <time>2015-03-08T08:29:43Z</time>
      </trkpt>
      <trkpt lat="43.9528" lon="1.97073">
        <ele>185</ele>
        <time>2015-03-08T08:29:53Z</time>
      </trkpt>
      <trkpt lat="43.95316" lon="1.97132">
        <ele>191</ele>
        <time>2015-03-08T08:30:03Z</time>
      </trkpt>
      <trkpt lat="43.95391" lon="1.97144">
        <ele>193</ele>
        <time>2015-03-08T08:30:13Z</time>
      </trkpt>
      <trkpt lat="43.95461" lon="1.97181">
        <ele>194</ele>
        <time>2015-03-08T08:30:23Z</time>
      </trkpt>
      <trkpt lat="43.95457" lon="1.97234">
        <ele>201</ele>
        <time>2015-03-08T08:30:33Z</time>
      </trkpt>
      <trkpt lat="43.95481" lon="1.9727">
        <ele>202</ele>
        <time>2015-03-08T08:30:43Z</time>
      </trkpt>
      <trkpt lat="43.9553" lon="1.97219">
        <ele>200</ele>
        <time>2015-03-08T08:30:53Z</time>
      </trkpt>
      <trkpt lat="43.95614" lon="1.97246">
        <ele>197</ele>
        <time>2015-03-08T08:31:03Z</time>
      </trkpt>
      <trkpt lat="43.95712" lon="1.97292">
        <ele>187</ele>
        <time>2015-03-08T08:31:13Z</time>
      </trkpt>
      <trkpt lat="43.95799" lon="1.97348">
        <ele>180</ele>
        <time>2015-03-08T08:31:23Z</time>
      </trkpt>
      <trkpt lat="43.95759" lon="1.9752">
        <ele>180</ele>
        <time>2015-03-08T08:31:33Z</time>
      </trkpt>
      <trkpt lat="43.95836" lon="1.97599">
        <ele>180</ele>
        <time>2015-03-08T08:31:43Z</time>
      </trkpt>
      <trkpt lat="43.95927" lon="1.97618">
        <ele>177</ele>
        <time>2015-03-08T08:31:53Z</time>
      </trkpt>
      <trkpt lat="43.95917" lon="1.97727">
        <ele>179</ele>
        <time>2015-03-08T08:32:03Z</time>
      </trkpt>
      <trkpt lat="43.9589" lon="1.97817">
        <ele>179</ele>
        <time>2015-03-08T08:32:13Z</time>
      </trkpt>
      <trkpt lat="43.95856" lon="1.97888">
        <ele>175</ele>
        <time>2015-03-08T08:32:23Z</time>
      </trkpt>
      <trkpt lat="43.95818" lon="1.97957">
        <ele>171</ele>
        <time>2015-03-08T08:32:33Z</time>
      </trkpt>
      <trkpt lat="43.95936" lon="1.98024">
        <ele>168</ele>
        <time>2015-03-08T08:32:43Z</time>
      </trkpt>
      <trkpt lat="43.96075" lon="1.98065">
        <ele>168</ele>
        <time>2015-03-08T08:32:53Z</time>
      </trkpt>
      <trkpt lat="43.96237" lon="1.98116">
        <ele>168</ele>
        <time>2015-03-08T08:33:03Z</time>
      </trkpt>
      <trkpt lat="43.96281" lon="1.98141">
        <ele>168</ele>
        <time>2015-03-08T08:33:13Z</time>
      </trkpt>
      <trkpt lat="43.96397" lon="1.98135">
        <ele>168</ele>
        <time>2015-03-08T08:33:23Z</time>
      </trkpt>
      <trkpt lat="43.96508" lon="1.98205">
        <ele>168</ele>
        <time>2015-03-08T08:33:33Z</time>
      </trkpt>
      <trkpt lat="43.96627" lon="1.98338">
        <ele>169</ele>
        <time>2015-03-08T08:33:43Z</time>
      </trkpt>
      <trkpt lat="43.96658" lon="1.98312">
        <ele>171</ele>
        <time>2015-03-08T08:33:53Z</time>
      </trkpt>
      <trkpt lat="43.96663" lon="1.98205">
        <ele>172</ele>
        <time>2015-03-08T08:34:03Z</time>
      </trkpt>
      <trkpt lat="43.96785" lon="1.98239">
        <ele>172</ele>
        <time>2015-03-08T08:34:14Z</time>
      </trkpt>
      <trkpt lat="43.96911" lon="1.9828">
        <ele>172</ele>
        <time>2015-03-08T08:34:24Z</time>
      </trkpt>
      <trkpt lat="43.97024" lon="1.98309">
        <ele>174</ele>
        <time>2015-03-08T08:34:34Z</time>
      </trkpt>
      <trkpt lat="43.971" lon="1.98353">
        <ele>174</ele>
        <time>2015-03-08T08:34:44Z</time>
      </trkpt>
      <trkpt lat="43.97187" lon="1.98432">
        <ele>177</ele>
        <time>2015-03-08T08:34:54Z</time>
      </trkpt>
      <trkpt lat="43.97328" lon="1.98515">
        <ele>183</ele>
        <time>2015-03-08T08:35:05Z</time>
      </trkpt>
      <trkpt lat="43.97446" lon="1.98518">
        <ele>185</ele>
        <time>2015-03-08T08:35:15Z</time>
      </trkpt>
      <trkpt lat="43.97561" lon="1.98561">
        <ele>185</ele>
        <time>2015-03-08T08:35:25Z</time>
      </trkpt>
      <trkpt lat="43.97616" lon="1.98595">
        <ele>185</ele>
        <time>2015-03-08T08:35:35Z</time>
      </trkpt>
      <trkpt lat="43.97675" lon="1.98635">
        <ele>185</ele>
        <time>2015-03-08T08:35:45Z</time>
      </trkpt>
      <trkpt lat="43.97671" lon="1.98754">
        <ele>195</ele>
        <time>2015-03-08T08:35:56Z</time>
      </trkpt>
      <trkpt lat="43.97648" lon="1.98895">
        <ele>212</ele>
        <time>2015-03-08T08:36:06Z</time>
      </trkpt>
      <trkpt lat="43.97646" lon="1.9897">
        <ele>226</ele>
        <time>2015-03-08T08:36:16Z</time>
      </trkpt>
      <trkpt lat="43.97594" lon="1.99095">
        <ele>243</ele>
        <time>2015-03-08T08:36:26Z</time>
      </trkpt>
      <trkpt lat="43.97618" lon="1.99218">
        <ele>253</ele>
        <time>2015-03-08T08:36:36Z</time>
      </trkpt>
      <trkpt lat="43.97662" lon="1.99276">
        <ele>249</ele>
        <time>2015-03-08T08:36:46Z</time>
      </trkpt>
      <trkpt lat="43.97764" lon="1.99268">
        <ele>241</ele>
        <time>2015-03-08T08:36:56Z</time>
      </trkpt>
      <trkpt lat="43.97802" lon="1.99378">
        <ele>240</ele>
        <time>2015-03-08T08:37:06Z</time>
      </trkpt>
      <trkpt lat="43.97916" lon="1.99387">
        <ele>239</ele>
        <time>2015-03-08T08:37:17Z</time>
      </trkpt>
      <trkpt lat="43.98033" lon="1.99389">
        <ele>242</ele>
        <time>2015-03-08T08:37:28Z</time>
      </trkpt>
      <trkpt lat="43.98157" lon="1.99426">
        <ele>242</ele>
        <time>2015-03-08T08:37:38Z</time>
      </trkpt>
      <trkpt lat="43.9828" lon="1.99474">
        <ele>242</ele>
        <time>2015-03-08T08:37:48Z</time>
      </trkpt>
      <trkpt lat="43.98393" lon="1.995">
        <ele>242</ele>
        <time>2015-03-08T08:37:58Z</time>
      </trkpt>
      <trkpt lat="43.98465" lon="1.99518">
        <ele>246</ele>
        <time>2015-03-08T08:38:09Z</time>
      </trkpt>
      <trkpt lat="43.98587" lon="1.99579">
        <ele>249</ele>
        <time>2015-03-08T08:38:19Z</time>
      </trkpt>
      <trkpt lat="43.98708" lon="1.99535">
        <ele>251</ele>
        <time>2015-03-08T08:38:29Z</time>
      </trkpt>
      <trkpt lat="43.98833" lon="1.99507">
        <ele>249</ele>
        <time>2015-03-08T08:38:39Z</time>
      </trkpt>
      <trkpt lat="43.98898" lon="1.99496">
        <ele>245</ele>
        <time>2015-03-08T08:38:49Z</time>
      </trkpt>
      <trkpt lat="43.98899" lon="1.99633">
        <ele>245</ele>
        <time>2015-03-08T08:38:59Z</time>
      </trkpt>
      <trkpt lat="43.98982" lon="1.99712">
        <ele>246</ele>
        <time>2015-03-08T08:39:10Z</time>
      </trkpt>
      <trkpt lat="43.99054" lon="1.99731">
        <ele>246</ele>
        <time>2015-03-08T08:39:20Z</time>
      </trkpt>
      <trkpt lat="43.99057" lon="1.99767">
        <ele>245</ele>
        <time>2015-03-08T08:39:30Z</time>
      </trkpt>
      <trkpt lat="43.99061" lon="1.99819">
        <ele>241</ele>
        <time>2015-03-08T08:39:40Z</time>
      </trkpt>
      <trkpt lat="43.99118" lon="1.99839">
        <ele>236</ele>
        <time>2015-03-08T08:39:50Z</time>
      </trkpt>
      <trkpt lat="43.99177" lon="1.99997">
        <ele>235</ele>
        <time>2015-03-08T08:40:01Z</time>
      </trkpt>
      <trkpt lat="43.99215" lon="2.00073">
        <ele>238</ele>
        <time>2015-03-08T08:40:11Z</time>
      </trkpt>
      <trkpt lat="43.99257" lon="2.00123">
        <ele>241</ele>
        <time>2015-03-08T08:40:21Z</time>
      </trkpt>
      <trkpt lat="43.99286" lon="2.00192">
        <ele>245</ele>
        <time>2015-03-08T08:40:31Z</time>
      </trkpt>
      <trkpt lat="43.99332" lon="2.00359">
        <ele>256</ele>
        <time>2015-03-08T08:40:42Z</time>
      </trkpt>
      <trkpt lat="43.99392" lon="2.0049">
        <ele>265</ele>
        <time>2015-03-08T08:40:52Z</time>
      </trkpt>
      <trkpt lat="43.9951" lon="2.00327">
        <ele>265</ele>
        <time>2015-03-08T08:41:03Z</time>
      </trkpt>
      <trkpt lat="43.99617" lon="2.00168">
        <ele>266</ele>
        <time>2015-03-08T08:41:13Z</time>
      </trkpt>
      <trkpt lat="43.99641" lon="2.00112">
        <ele>266</ele>
        <time>2015-03-08T08:41:23Z</time>
      </trkpt>
      <trkpt lat="43.99498" lon="2.00043">
        <ele>264</ele>
        <time>2015-03-08T08:41:34Z</time>
      </trkpt>
      <trkpt lat="43.99463" lon="1.99966">
        <ele>259</ele>
        <time>2015-03-08T08:41:44Z</time>
      </trkpt>
      <trkpt lat="43.99447" lon="1.9981">
        <ele>259</ele>
        <time>2015-03-08T08:41:55Z</time>
      </trkpt>
      <trkpt lat="43.9949" lon="1.99692">
        <ele>250</ele>
        <time>2015-03-08T08:42:05Z</time>
      </trkpt>
      <trkpt lat="43.99602" lon="1.99647">
        <ele>250</ele>
        <time>2015-03-08T08:42:16Z</time>
      </trkpt>
      <trkpt lat="43.9968" lon="1.99497">
        <ele>250</ele>
        <time>2015-03-08T08:42:26Z</time>
      </trkpt>
      <trkpt lat="43.99791" lon="1.99367">
        <ele>250</ele>
        <time>2015-03-08T08:42:36Z</time>
      </trkpt>
      <trkpt lat="43.99908" lon="1.99308">
        <ele>250</ele>
        <time>2015-03-08T08:42:46Z</time>
      </trkpt>
      <trkpt lat="44.00032" lon="1.9919">
        <ele>248</ele>
        <time>2015-03-08T08:42:56Z</time>
      </trkpt>
      <trkpt lat="44.00111" lon="1.99112">
        <ele>248</ele>
        <time>2015-03-08T08:43:06Z</time>
      </trkpt>
      <trkpt lat="44.00045" lon="1.99009">
        <ele>248</ele>
        <time>2015-03-08T08:43:16Z</time>
      </trkpt>
      <trkpt lat="43.99991" lon="1.9896">
        <ele>248</ele>
        <time>2015-03-08T08:43:26Z</time>
      </trkpt>
      <trkpt lat="43.9992" lon="1.98883">
        <ele>248</ele>
        <time>2015-03-08T08:43:36Z</time>
      </trkpt>
      <trkpt lat="43.99863" lon="1.98892">
        <ele>243</ele>
        <time>2015-03-08T08:43:46Z</time>
      </trkpt>
      <trkpt lat="43.99896" lon="1.98726">
        <ele>240</ele>
        <time>2015-03-08T08:43:57Z</time>
      </trkpt>
      <trkpt lat="43.99952" lon="1.98521">
        <ele>240</ele>
        <time>2015-03-08T08:44:07Z</time>
      </trkpt>
      <trkpt lat="44.00051" lon="1.98419">
        <ele>237</ele>
        <time>2015-03-08T08:44:17Z</time>
      </trkpt>
      <trkpt lat="44.00131" lon="1.98324">
        <ele>234</ele>
        <time>2015-03-08T08:44:27Z</time>
      </trkpt>
      <trkpt lat="44.00153" lon="1.98276">
        <ele>225</ele>
        <time>2015-03-08T08:44:37Z</time>
      </trkpt>
      <trkpt lat="44.00171" lon="1.9828">
        <ele>215</ele>
        <time>2015-03-08T08:44:47Z</time>
      </trkpt>
      <trkpt lat="44.00159" lon="1.98143">
        <ele>210</ele>
        <time>2015-03-08T08:44:58Z</time>
      </trkpt>
      <trkpt lat="44.00148" lon="1.9802">
        <ele>209</ele>
        <time>2015-03-08T08:45:08Z</time>
      </trkpt>
      <trkpt lat="44.00204" lon="1.98004">
        <ele>209</ele>
        <time>2015-03-08T08:45:18Z</time>
      </trkpt>
      <trkpt lat="44.003" lon="1.97987">
        <ele>209</ele>
        <time>2015-03-08T08:45:28Z</time>
      </trkpt>
      <trkpt lat="44.00331" lon="1.97951">
        <ele>209</ele>
        <time>2015-03-08T08:45:38Z</time>
      </trkpt>
      <trkpt lat="44.0031" lon="1.97776">
        <ele>209</ele>
        <time>2015-03-08T08:45:49Z</time>
      </trkpt>
      <trkpt lat="44.00226" lon="1.97617">
        <ele>213</ele>
        <time>2015-03-08T08:45:59Z</time>
      </trkpt>
      <trkpt lat="44.0013" lon="1.97492">
        <ele>213</ele>
        <time>2015-03-08T08:46:09Z</time>
      </trkpt>
      <trkpt lat="44.00093" lon="1.97395">
        <ele>209</ele>
        <time>2015-03-08T08:46:19Z</time>
      </trkpt>
      <trkpt lat="44.00048" lon="1.97283">
        <ele>217</ele>
        <time>2015-03-08T08:46:30Z</time>
      </trkpt>
      <trkpt lat="44.00054" lon="1.97251">
        <ele>226</ele>
        <time>2015-03-08T08:46:40Z</time>
      </trkpt>
      <trkpt lat="44.00137" lon="1.97243">
        <ele>232</ele>
        <time>2015-03-08T08:46:51Z</time>
      </trkpt>
      <trkpt lat="44.00226" lon="1.97187">
        <ele>233</ele>
        <time>2015-03-08T08:47:01Z</time>
      </trkpt>
      <trkpt lat="44.00329" lon="1.97105">
        <ele>228</ele>
        <time>2015-03-08T08:47:11Z</time>
      </trkpt>
      <trkpt lat="44.00425" lon="1.9704">
        <ele>226</ele>
        <time>2015-03-08T08:47:21Z</time>
      </trkpt>
      <trkpt lat="44.00487" lon="1.97076">
        <ele>223</ele>
        <time>2015-03-08T08:47:31Z</time>
      </trkpt>
      <trkpt lat="44.00536" lon="1.9708">
        <ele>225</ele>
        <time>2015-03-08T08:47:41Z</time>
      </trkpt>
      <trkpt lat="44.00539" lon="1.97093">
        <ele>235</ele>
        <time>2015-03-08T08:47:52Z</time>
      </trkpt>
      <trkpt lat="44.00542" lon="1.97097">
        <ele>239</ele>
        <time>2015-03-08T08:48:03Z</time>
      </trkpt>
      <trkpt lat="44.00542" lon="1.971">
        <ele>240</ele>
        <time>2015-03-08T08:48:18Z</time>
      </trkpt>
      <trkpt lat="44.00543" lon="1.97101">
        <ele>241</ele>
        <time>2015-03-08T08:48:33Z</time>
      </trkpt>
      <trkpt lat="44.00542" lon="1.97102">
        <ele>241</ele>
        <time>2015-03-08T08:49:00Z</time>
      </trkpt>
      <trkpt lat="44.00541" lon="1.97102">
        <ele>241</ele>
        <time>2015-03-08T08:49:39Z</time>
      </trkpt>
      <trkpt lat="44.00541" lon="1.97103">
        <ele>241</ele>
        <time>2015-03-08T08:49:57Z</time>
      </trkpt>
      <trkpt lat="44.00542" lon="1.97105">
        <ele>241</ele>
        <time>2015-03-08T08:50:14Z</time>
      </trkpt>
      <trkpt lat="44.00543" lon="1.97104">
        <ele>241</ele>
        <time>2015-03-08T08:50:37Z</time>
      </trkpt>
      <trkpt lat="44.00543" lon="1.97102">
        <ele>241</ele>
        <time>2015-03-08T08:50:49Z</time>
      </trkpt>
      <trkpt lat="44.00541" lon="1.97102">
        <ele>241</ele>
        <time>2015-03-08T08:51:00Z</time>
      </trkpt>
      <trkpt lat="44.00526" lon="1.9721">
        <ele>241</ele>
        <time>2015-03-08T08:51:11Z</time>
      </trkpt>
      <trkpt lat="44.00542" lon="1.97359">
        <ele>241</ele>
        <time>2015-03-08T08:51:21Z</time>
      </trkpt>
      <trkpt lat="44.00524" lon="1.97522">
        <ele>238</ele>
        <time>2015-03-08T08:51:32Z</time>
      </trkpt>
      <trkpt lat="44.00525" lon="1.97681">
        <ele>231</ele>
        <time>2015-03-08T08:51:42Z</time>
      </trkpt>
      <trkpt lat="44.00529" lon="1.97825">
        <ele>231</ele>
        <time>2015-03-08T08:51:52Z</time>
      </trkpt>
      <trkpt lat="44.00547" lon="1.97959">
        <ele>231</ele>
        <time>2015-03-08T08:52:03Z</time>
      </trkpt>
      <trkpt lat="44.00576" lon="1.98059">
        <ele>229</ele>
        <time>2015-03-08T08:52:13Z</time>
      </trkpt>
      <trkpt lat="44.00663" lon="1.98094">
        <ele>218</ele>
        <time>2015-03-08T08:52:24Z</time>
      </trkpt>
      <trkpt lat="44.00764" lon="1.98101">
        <ele>212</ele>
        <time>2015-03-08T08:52:35Z</time>
      </trkpt>
      <trkpt lat="44.00789" lon="1.98248">
        <ele>214</ele>
        <time>2015-03-08T08:52:46Z</time>
      </trkpt>
      <trkpt lat="44.00875" lon="1.98327">
        <ele>221</ele>
        <time>2015-03-08T08:52:56Z</time>
      </trkpt>
      <trkpt lat="44.00953" lon="1.98372">
        <ele>228</ele>
        <time>2015-03-08T08:53:06Z</time>
      </trkpt>
      <trkpt lat="44.0102" lon="1.98437">
        <ele>233</ele>
        <time>2015-03-08T08:53:16Z</time>
      </trkpt>
      <trkpt lat="44.01081" lon="1.98562">
        <ele>236</ele>
        <time>2015-03-08T08:53:26Z</time>
      </trkpt>
      <trkpt lat="44.01159" lon="1.98674">
        <ele>240</ele>
        <time>2015-03-08T08:53:36Z</time>
      </trkpt>
      <trkpt lat="44.01248" lon="1.98778">
        <ele>244</ele>
        <time>2015-03-08T08:53:46Z</time>
      </trkpt>
      <trkpt lat="44.01285" lon="1.98932">
        <ele>245</ele>
        <time>2015-03-08T08:53:56Z</time>
      </trkpt>
      <trkpt lat="44.01289" lon="1.99097">
        <ele>245</ele>
        <time>2015-03-08T08:54:06Z</time>
      </trkpt>
      <trkpt lat="44.01313" lon="1.99263">
        <ele>245</ele>
        <time>2015-03-08T08:54:16Z</time>
      </trkpt>
      <trkpt lat="44.01342" lon="1.99404">
        <ele>241</ele>
        <time>2015-03-08T08:54:26Z</time>
      </trkpt>
      <trkpt lat="44.0144" lon="1.99472">
        <ele>236</ele>
        <time>2015-03-08T08:54:36Z</time>
      </trkpt>
      <trkpt lat="44.01542" lon="1.99523">
        <ele>235</ele>
        <time>2015-03-08T08:54:46Z</time>
      </trkpt>
      <trkpt lat="44.01647" lon="1.99512">
        <ele>242</ele>
        <time>2015-03-08T08:54:56Z</time>
      </trkpt>
      <trkpt lat="44.01754" lon="1.99467">
        <ele>250</ele>
        <time>2015-03-08T08:55:06Z</time>
      </trkpt>
      <trkpt lat="44.01876" lon="1.99498">
        <ele>250</ele>
        <time>2015-03-08T08:55:16Z</time>
      </trkpt>
      <trkpt lat="44.02001" lon="1.99515">
        <ele>250</ele>
        <time>2015-03-08T08:55:26Z</time>
      </trkpt>
      <trkpt lat="44.02117" lon="1.99547">
        <ele>250</ele>
        <time>2015-03-08T08:55:36Z</time>
      </trkpt>
      <trkpt lat="44.0216" lon="1.99632">
        <ele>254</ele>
        <time>2015-03-08T08:55:46Z</time>
      </trkpt>
      <trkpt lat="44.02272" lon="1.99764">
        <ele>254</ele>
        <time>2015-03-08T08:55:56Z</time>
      </trkpt>
      <trkpt lat="44.02438" lon="1.99826">
        <ele>257</ele>
        <time>2015-03-08T08:56:06Z</time>
      </trkpt>
      <trkpt lat="44.0255" lon="1.99827">
        <ele>258</ele>
        <time>2015-03-08T08:56:16Z</time>
      </trkpt>
      <trkpt lat="44.0267" lon="1.99902">
        <ele>261</ele>
        <time>2015-03-08T08:56:26Z</time>
      </trkpt>
      <trkpt lat="44.02702" lon="2.00045">
        <ele>261</ele>
        <time>2015-03-08T08:56:36Z</time>
      </trkpt>
      <trkpt lat="44.02797" lon="2.00179">
        <ele>264</ele>
        <time>2015-03-08T08:56:46Z</time>
      </trkpt>
      <trkpt lat="44.02826" lon="2.00446">
        <ele>274</ele>
        <time>2015-03-08T08:56:56Z</time>
      </trkpt>
      <trkpt lat="44.02901" lon="2.00648">
        <ele>283</ele>
        <time>2015-03-08T08:57:06Z</time>
      </trkpt>
      <trkpt lat="44.02985" lon="2.00719">
        <ele>289</ele>
        <time>2015-03-08T08:57:16Z</time>
      </trkpt>
      <trkpt lat="44.03085" lon="2.00777">
        <ele>292</ele>
        <time>2015-03-08T08:57:26Z</time>
      </trkpt>
      <trkpt lat="44.03149" lon="2.00768">
        <ele>292</ele>
        <time>2015-03-08T08:57:36Z</time>
      </trkpt>
      <trkpt lat="44.03175" lon="2.00539">
        <ele>295</ele>
        <time>2015-03-08T08:57:46Z</time>
      </trkpt>
      <trkpt lat="44.0321" lon="2.00395">
        <ele>295</ele>
        <time>2015-03-08T08:57:56Z</time>
      </trkpt>
      <trkpt lat="44.03357" lon="2.00243">
        <ele>295</ele>
        <time>2015-03-08T08:58:06Z</time>
      </trkpt>
      <trkpt lat="44.0346" lon="2.00131">
        <ele>288</ele>
        <time>2015-03-08T08:58:16Z</time>
      </trkpt>
      <trkpt lat="44.03556" lon="1.99984">
        <ele>279</ele>
        <time>2015-03-08T08:58:26Z</time>
      </trkpt>
      <trkpt lat="44.03652" lon="1.99956">
        <ele>273</ele>
        <time>2015-03-08T08:58:36Z</time>
      </trkpt>
      <trkpt lat="44.03712" lon="1.99944">
        <ele>270</ele>
        <time>2015-03-08T08:58:47Z</time>
      </trkpt>
      <trkpt lat="44.03801" lon="1.99818">
        <ele>263</ele>
        <time>2015-03-08T08:58:57Z</time>
      </trkpt>
      <trkpt lat="44.03895" lon="1.99714">
        <ele>255</ele>
        <time>2015-03-08T08:59:07Z</time>
      </trkpt>
      <trkpt lat="44.0397" lon="1.99606">
        <ele>245</ele>
        <time>2015-03-08T08:59:17Z</time>
      </trkpt>
      <trkpt lat="44.04073" lon="1.99571">
        <ele>239</ele>
        <time>2015-03-08T08:59:27Z</time>
      </trkpt>
      <trkpt lat="44.04165" lon="1.9943">
        <ele>237</ele>
        <time>2015-03-08T08:59:37Z</time>
      </trkpt>
      <trkpt lat="44.04283" lon="1.99316">
        <ele>236</ele>
        <time>2015-03-08T08:59:47Z</time>
      </trkpt>
      <trkpt lat="44.04392" lon="1.99186">
        <ele>234</ele>
        <time>2015-03-08T08:59:57Z</time>
      </trkpt>
      <trkpt lat="44.04498" lon="1.9909">
        <ele>232</ele>
        <time>2015-03-08T09:00:07Z</time>
      </trkpt>
      <trkpt lat="44.04599" lon="1.98998">
        <ele>228</ele>
        <time>2015-03-08T09:00:17Z</time>
      </trkpt>
      <trkpt lat="44.04699" lon="1.9887">
        <ele>224</ele>
        <time>2015-03-08T09:00:27Z</time>
      </trkpt>
      <trkpt lat="44.04754" lon="1.98799">
        <ele>218</ele>
        <time>2015-03-08T09:00:37Z</time>
      </trkpt>
      <trkpt lat="44.04762" lon="1.98689">
        <ele>213</ele>
        <time>2015-03-08T09:00:47Z</time>
      </trkpt>
      <trkpt lat="44.04869" lon="1.98579">
        <ele>213</ele>
        <time>2015-03-08T09:00:57Z</time>
      </trkpt>
      <trkpt lat="44.04898" lon="1.98459">
        <ele>217</ele>
        <time>2015-03-08T09:01:07Z</time>
      </trkpt>
      <trkpt lat="44.04873" lon="1.98533">
        <ele>227</ele>
        <time>2015-03-08T09:01:17Z</time>
      </trkpt>
      <trkpt lat="44.04796" lon="1.98596">
        <ele>237</ele>
        <time>2015-03-08T09:01:27Z</time>
      </trkpt>
      <trkpt lat="44.04699" lon="1.98635">
        <ele>247</ele>
        <time>2015-03-08T09:01:37Z</time>
      </trkpt>
      <trkpt lat="44.04635" lon="1.98651">
        <ele>257</ele>
        <time>2015-03-08T09:01:47Z</time>
      </trkpt>
      <trkpt lat="44.04707" lon="1.98549">
        <ele>263</ele>
        <time>2015-03-08T09:01:57Z</time>
      </trkpt>
      <trkpt lat="44.04681" lon="1.98539">
        <ele>272</ele>
        <time>2015-03-08T09:02:08Z</time>
      </trkpt>
      <trkpt lat="44.04597" lon="1.9848">
        <ele>279</ele>
        <time>2015-03-08T09:02:18Z</time>
      </trkpt>
      <trkpt lat="44.04513" lon="1.98432">
        <ele>283</ele>
        <time>2015-03-08T09:02:28Z</time>
      </trkpt>
      <trkpt lat="44.04477" lon="1.98447">
        <ele>289</ele>
        <time>2015-03-08T09:02:38Z</time>
      </trkpt>
      <trkpt lat="44.04406" lon="1.98542">
        <ele>291</ele>
        <time>2015-03-08T09:02:48Z</time>
      </trkpt>
      <trkpt lat="44.0433" lon="1.98644">
        <ele>295</ele>
        <time>2015-03-08T09:02:58Z</time>
      </trkpt>
      <trkpt lat="44.04255" lon="1.98596">
        <ele>300</ele>
        <time>2015-03-08T09:03:08Z</time>
      </trkpt>
      <trkpt lat="44.04141" lon="1.98575">
        <ele>295</ele>
        <time>2015-03-08T09:03:18Z</time>
      </trkpt>
      <trkpt lat="44.0401" lon="1.98581">
        <ele>285</ele>
        <time>2015-03-08T09:03:28Z</time>
      </trkpt>
      <trkpt lat="44.03939" lon="1.98486">
        <ele>280</ele>
        <time>2015-03-08T09:03:38Z</time>
      </trkpt>
      <trkpt lat="44.03998" lon="1.98423">
        <ele>273</ele>
        <time>2015-03-08T09:03:48Z</time>
      </trkpt>
      <trkpt lat="44.04108" lon="1.98443">
        <ele>261</ele>
        <time>2015-03-08T09:03:58Z</time>
      </trkpt>
      <trkpt lat="44.04207" lon="1.98407">
        <ele>249</ele>
        <time>2015-03-08T09:04:08Z</time>
      </trkpt>
      <trkpt lat="44.04276" lon="1.9828">
        <ele>237</ele>
        <time>2015-03-08T09:04:18Z</time>
      </trkpt>
      <trkpt lat="44.0433" lon="1.98184">
        <ele>227</ele>
        <time>2015-03-08T09:04:28Z</time>
      </trkpt>
      <trkpt lat="44.04386" lon="1.98072">
        <ele>217</ele>
        <time>2015-03-08T09:04:38Z</time>
      </trkpt>
      <trkpt lat="44.04427" lon="1.97913">
        <ele>211</ele>
        <time>2015-03-08T09:04:48Z</time>
      </trkpt>
      <trkpt lat="44.04483" lon="1.97774">
        <ele>213</ele>
        <time>2015-03-08T09:04:58Z</time>
      </trkpt>
      <trkpt lat="44.04531" lon="1.97698">
        <ele>213</ele>
        <time>2015-03-08T09:05:08Z</time>
      </trkpt>
      <trkpt lat="44.04492" lon="1.97676">
        <ele>214</ele>
        <time>2015-03-08T09:05:18Z</time>
      </trkpt>
      <trkpt lat="44.04434" lon="1.97649">
        <ele>218</ele>
        <time>2015-03-08T09:05:28Z</time>
      </trkpt>
      <trkpt lat="44.04296" lon="1.97607">
        <ele>222</ele>
        <time>2015-03-08T09:05:38Z</time>
      </trkpt>
      <trkpt lat="44.04161" lon="1.97736">
        <ele>225</ele>
        <time>2015-03-08T09:05:48Z</time>
      </trkpt>
      <trkpt lat="44.04043" lon="1.97901">
        <ele>229</ele>
        <time>2015-03-08T09:05:58Z</time>
      </trkpt>
      <trkpt lat="44.03946" lon="1.98101">
        <ele>230</ele>
        <time>2015-03-08T09:06:08Z</time>
      </trkpt>
      <trkpt lat="44.03786" lon="1.98154">
        <ele>245</ele>
        <time>2015-03-08T09:06:18Z</time>
      </trkpt>
      <trkpt lat="44.03654" lon="1.98185">
        <ele>258</ele>
        <time>2015-03-08T09:06:28Z</time>
      </trkpt>
      <trkpt lat="44.03626" lon="1.9818">
        <ele>268</ele>
        <time>2015-03-08T09:06:38Z</time>
      </trkpt>
      <trkpt lat="44.03508" lon="1.98237">
        <ele>276</ele>
        <time>2015-03-08T09:06:48Z</time>
      </trkpt>
      <trkpt lat="44.03348" lon="1.98257">
        <ele>286</ele>
        <time>2015-03-08T09:06:58Z</time>
      </trkpt>
      <trkpt lat="44.03184" lon="1.98313">
        <ele>292</ele>
        <time>2015-03-08T09:07:08Z</time>
      </trkpt>
      <trkpt lat="44.03061" lon="1.98384">
        <ele>292</ele>
        <time>2015-03-08T09:07:18Z</time>
      </trkpt>
      <trkpt lat="44.03033" lon="1.984">
        <ele>292</ele>
        <time>2015-03-08T09:07:28Z</time>
      </trkpt>
      <trkpt lat="44.03001" lon="1.9827">
        <ele>292</ele>
        <time>2015-03-08T09:07:38Z</time>
      </trkpt>
      <trkpt lat="44.02977" lon="1.98108">
        <ele>292</ele>
        <time>2015-03-08T09:07:48Z</time>
      </trkpt>
      <trkpt lat="44.02953" lon="1.97952">
        <ele>294</ele>
        <time>2015-03-08T09:07:58Z</time>
      </trkpt>
      <trkpt lat="44.02944" lon="1.97807">
        <ele>296</ele>
        <time>2015-03-08T09:08:08Z</time>
      </trkpt>
      <trkpt lat="44.02928" lon="1.97731">
        <ele>296</ele>
        <time>2015-03-08T09:08:18Z</time>
      </trkpt>
      <trkpt lat="44.02956" lon="1.97628">
        <ele>296</ele>
        <time>2015-03-08T09:08:28Z</time>
      </trkpt>
      <trkpt lat="44.03014" lon="1.9744">
        <ele>293</ele>
        <time>2015-03-08T09:08:38Z</time>
      </trkpt>
      <trkpt lat="44.03067" lon="1.97217">
        <ele>289</ele>
        <time>2015-03-08T09:08:48Z</time>
      </trkpt>
      <trkpt lat="44.03108" lon="1.97079">
        <ele>289</ele>
        <time>2015-03-08T09:08:58Z</time>
      </trkpt>
      <trkpt lat="44.03115" lon="1.9701">
        <ele>289</ele>
        <time>2015-03-08T09:09:08Z</time>
      </trkpt>
      <trkpt lat="44.03163" lon="1.96887">
        <ele>289</ele>
        <time>2015-03-08T09:09:18Z</time>
      </trkpt>
      <trkpt lat="44.03249" lon="1.96732">
        <ele>289</ele>
        <time>2015-03-08T09:09:28Z</time>
      </trkpt>
      <trkpt lat="44.03279" lon="1.96687">
        <ele>286</ele>
        <time>2015-03-08T09:09:43Z</time>
      </trkpt>
      <trkpt lat="44.03278" lon="1.96687">
        <ele>286</ele>
        <time>2015-03-08T09:09:56Z</time>
      </trkpt>
      <trkpt lat="44.03329" lon="1.96568">
        <ele>286</ele>
        <time>2015-03-08T09:10:06Z</time>
      </trkpt>
      <trkpt lat="44.03375" lon="1.96516">
        <ele>286</ele>
        <time>2015-03-08T09:10:16Z</time>
      </trkpt>
      <trkpt lat="44.03463" lon="1.96623">
        <ele>279</ele>
        <time>2015-03-08T09:10:26Z</time>
      </trkpt>
      <trkpt lat="44.03524" lon="1.96713">
        <ele>269</ele>
        <time>2015-03-08T09:10:36Z</time>
      </trkpt>
      <trkpt lat="44.03519" lon="1.96706">
        <ele>264</ele>
        <time>2015-03-08T09:10:46Z</time>
      </trkpt>
      <trkpt lat="44.0355" lon="1.96662">
        <ele>263</ele>
        <time>2015-03-08T09:10:56Z</time>
      </trkpt>
      <trkpt lat="44.03599" lon="1.96564">
        <ele>259</ele>
        <time>2015-03-08T09:11:06Z</time>
      </trkpt>
      <trkpt lat="44.03646" lon="1.96473">
        <ele>250</ele>
        <time>2015-03-08T09:11:16Z</time>
      </trkpt>
      <trkpt lat="44.03706" lon="1.96402">
        <ele>240</ele>
        <time>2015-03-08T09:11:26Z</time>
      </trkpt>
      <trkpt lat="44.03686" lon="1.96367">
        <ele>237</ele>
        <time>2015-03-08T09:11:36Z</time>
      </trkpt>
      <trkpt lat="44.03611" lon="1.96289">
        <ele>240</ele>
        <time>2015-03-08T09:11:46Z</time>
      </trkpt>
      <trkpt lat="44.03599" lon="1.9623">
        <ele>250</ele>
        <time>2015-03-08T09:11:56Z</time>
      </trkpt>
      <trkpt lat="44.03605" lon="1.96144">
        <ele>255</ele>
        <time>2015-03-08T09:12:06Z</time>
      </trkpt>
      <trkpt lat="44.03656" lon="1.96111">
        <ele>250</ele>
        <time>2015-03-08T09:12:16Z</time>
      </trkpt>
      <trkpt lat="44.03707" lon="1.96124">
        <ele>233</ele>
        <time>2015-03-08T09:12:26Z</time>
      </trkpt>
      <trkpt lat="44.03726" lon="1.96174">
        <ele>228</ele>
        <time>2015-03-08T09:12:36Z</time>
      </trkpt>
      <trkpt lat="44.03727" lon="1.96305">
        <ele>230</ele>
        <time>2015-03-08T09:12:46Z</time>
      </trkpt>
      <trkpt lat="44.03773" lon="1.96293">
        <ele>240</ele>
        <time>2015-03-08T09:12:56Z</time>
      </trkpt>
      <trkpt lat="44.03763" lon="1.96265">
        <ele>250</ele>
        <time>2015-03-08T09:13:09Z</time>
      </trkpt>
      <trkpt lat="44.03762" lon="1.96265">
        <ele>250</ele>
        <time>2015-03-08T09:13:22Z</time>
      </trkpt>
      <trkpt lat="44.03755" lon="1.96256">
        <ele>251</ele>
        <time>2015-03-08T09:13:36Z</time>
      </trkpt>
      <trkpt lat="44.03751" lon="1.96242">
        <ele>251</ele>
        <time>2015-03-08T09:13:46Z</time>
      </trkpt>
      <trkpt lat="44.03731" lon="1.96168">
        <ele>243</ele>
        <time>2015-03-08T09:13:56Z</time>
      </trkpt>
      <trkpt lat="44.03682" lon="1.96107">
        <ele>235</ele>
        <time>2015-03-08T09:14:06Z</time>
      </trkpt>
      <trkpt lat="44.03574" lon="1.96054">
        <ele>235</ele>
        <time>2015-03-08T09:14:16Z</time>
      </trkpt>
      <trkpt lat="44.03454" lon="1.96041">
        <ele>235</ele>
        <time>2015-03-08T09:14:26Z</time>
      </trkpt>
      <trkpt lat="44.03378" lon="1.96131">
        <ele>241</ele>
        <time>2015-03-08T09:14:37Z</time>
      </trkpt>
      <trkpt lat="44.03286" lon="1.96272">
        <ele>245</ele>
        <time>2015-03-08T09:14:47Z</time>
      </trkpt>
      <trkpt lat="44.0322" lon="1.96219">
        <ele>259</ele>
        <time>2015-03-08T09:14:57Z</time>
      </trkpt>
      <trkpt lat="44.0314" lon="1.9608">
        <ele>269</ele>
        <time>2015-03-08T09:15:07Z</time>
      </trkpt>
      <trkpt lat="44.03168" lon="1.96016">
        <ele>279</ele>
        <time>2015-03-08T09:15:17Z</time>
      </trkpt>
      <trkpt lat="44.0326" lon="1.95927">
        <ele>289</ele>
        <time>2015-03-08T09:15:27Z</time>
      </trkpt>
      <trkpt lat="44.03343" lon="1.95858">
        <ele>290</ele>
        <time>2015-03-08T09:15:37Z</time>
      </trkpt>
      <trkpt lat="44.03446" lon="1.95872">
        <ele>285</ele>
        <time>2015-03-08T09:15:47Z</time>
      </trkpt>
      <trkpt lat="44.03545" lon="1.95813">
        <ele>273</ele>
        <time>2015-03-08T09:15:57Z</time>
      </trkpt>
      <trkpt lat="44.03628" lon="1.95756">
        <ele>263</ele>
        <time>2015-03-08T09:16:07Z</time>
      </trkpt>
      <trkpt lat="44.03711" lon="1.95696">
        <ele>256</ele>
        <time>2015-03-08T09:16:17Z</time>
      </trkpt>
      <trkpt lat="44.03802" lon="1.9562">
        <ele>248</ele>
        <time>2015-03-08T09:16:27Z</time>
      </trkpt>
      <trkpt lat="44.03879" lon="1.95528">
        <ele>239</ele>
        <time>2015-03-08T09:16:37Z</time>
      </trkpt>
      <trkpt lat="44.03941" lon="1.95527">
        <ele>229</ele>
        <time>2015-03-08T09:16:47Z</time>
      </trkpt>
      <trkpt lat="44.04006" lon="1.95513">
        <ele>219</ele>
        <time>2015-03-08T09:16:57Z</time>
      </trkpt>
      <trkpt lat="44.0405" lon="1.95465">
        <ele>214</ele>
        <time>2015-03-08T09:17:07Z</time>
      </trkpt>
      <trkpt lat="44.04051" lon="1.95458">
        <ele>214</ele>
        <time>2015-03-08T09:17:17Z</time>
      </trkpt>
      <trkpt lat="44.04041" lon="1.95376">
        <ele>214</ele>
        <time>2015-03-08T09:17:27Z</time>
      </trkpt>
      <trkpt lat="44.03976" lon="1.95339">
        <ele>219</ele>
        <time>2015-03-08T09:17:37Z</time>
      </trkpt>
      <trkpt lat="44.03904" lon="1.95302">
        <ele>242</ele>
        <time>2015-03-08T09:17:48Z</time>
      </trkpt>
      <trkpt lat="44.03918" lon="1.95292">
        <ele>258</ele>
        <time>2015-03-08T09:18:11Z</time>
      </trkpt>
      <trkpt lat="44.03919" lon="1.95242">
        <ele>258</ele>
        <time>2015-03-08T09:18:21Z</time>
      </trkpt>
      <trkpt lat="44.03927" lon="1.9515">
        <ele>258</ele>
        <time>2015-03-08T09:18:31Z</time>
      </trkpt>
      <trkpt lat="44.03882" lon="1.95052">
        <ele>254</ele>
        <time>2015-03-08T09:18:41Z</time>
      </trkpt>
      <trkpt lat="44.03847" lon="1.94947">
        <ele>254</ele>
        <time>2015-03-08T09:18:51Z</time>
      </trkpt>
      <trkpt lat="44.03783" lon="1.94983">
        <ele>258</ele>
        <time>2015-03-08T09:19:01Z</time>
      </trkpt>
      <trkpt lat="44.03729" lon="1.95049">
        <ele>258</ele>
        <time>2015-03-08T09:19:11Z</time>
      </trkpt>
      <trkpt lat="44.03691" lon="1.95118">
        <ele>262</ele>
        <time>2015-03-08T09:19:21Z</time>
      </trkpt>
      <trkpt lat="44.0367" lon="1.95107">
        <ele>271</ele>
        <time>2015-03-08T09:19:31Z</time>
      </trkpt>
      <trkpt lat="44.03642" lon="1.95077">
        <ele>273</ele>
        <time>2015-03-08T09:19:41Z</time>
      </trkpt>
      <trkpt lat="44.03617" lon="1.95064">
        <ele>271</ele>
        <time>2015-03-08T09:19:51Z</time>
      </trkpt>
      <trkpt lat="44.03634" lon="1.95111">
        <ele>270</ele>
        <time>2015-03-08T09:20:01Z</time>
      </trkpt>
      <trkpt lat="44.03602" lon="1.95069">
        <ele>268</ele>
        <time>2015-03-08T09:20:11Z</time>
      </trkpt>
      <trkpt lat="44.03562" lon="1.94986">
        <ele>258</ele>
        <time>2015-03-08T09:20:21Z</time>
      </trkpt>
      <trkpt lat="44.03466" lon="1.94992">
        <ele>248</ele>
        <time>2015-03-08T09:20:31Z</time>
      </trkpt>
      <trkpt lat="44.03405" lon="1.95064">
        <ele>242</ele>
        <time>2015-03-08T09:20:41Z</time>
      </trkpt>
      <trkpt lat="44.03392" lon="1.95092">
        <ele>249</ele>
        <time>2015-03-08T09:20:51Z</time>
      </trkpt>
      <trkpt lat="44.03366" lon="1.95134">
        <ele>255</ele>
        <time>2015-03-08T09:21:01Z</time>
      </trkpt>
      <trkpt lat="44.03334" lon="1.95168">
        <ele>255</ele>
        <time>2015-03-08T09:21:11Z</time>
      </trkpt>
      <trkpt lat="44.03332" lon="1.9514">
        <ele>257</ele>
        <time>2015-03-08T09:21:21Z</time>
      </trkpt>
      <trkpt lat="44.03349" lon="1.95135">
        <ele>251</ele>
        <time>2015-03-08T09:21:31Z</time>
      </trkpt>
      <trkpt lat="44.03346" lon="1.95169">
        <ele>262</ele>
        <time>2015-03-08T09:21:49Z</time>
      </trkpt>
      <trkpt lat="44.03378" lon="1.95256">
        <ele>263</ele>
        <time>2015-03-08T09:21:59Z</time>
      </trkpt>
      <trkpt lat="44.03337" lon="1.95358">
        <ele>262</ele>
        <time>2015-03-08T09:22:09Z</time>
      </trkpt>
      <trkpt lat="44.03338" lon="1.95313">
        <ele>257</ele>
        <time>2015-03-08T09:22:19Z</time>
      </trkpt>
      <trkpt lat="44.03318" lon="1.95191">
        <ele>255</ele>
        <time>2015-03-08T09:22:29Z</time>
      </trkpt>
      <trkpt lat="44.0337" lon="1.95055">
        <ele>249</ele>
        <time>2015-03-08T09:22:40Z</time>
      </trkpt>
      <trkpt lat="44.03471" lon="1.9495">
        <ele>241</ele>
        <time>2015-03-08T09:22:50Z</time>
      </trkpt>
      <trkpt lat="44.03556" lon="1.94884">
        <ele>232</ele>
        <time>2015-03-08T09:23:00Z</time>
      </trkpt>
      <trkpt lat="44.03578" lon="1.94859">
        <ele>230</ele>
        <time>2015-03-08T09:23:10Z</time>
      </trkpt>
      <trkpt lat="44.03564" lon="1.94848">
        <ele>228</ele>
        <time>2015-03-08T09:23:20Z</time>
      </trkpt>
      <trkpt lat="44.03569" lon="1.94838">
        <ele>227</ele>
        <time>2015-03-08T09:23:30Z</time>
      </trkpt>
      <trkpt lat="44.03582" lon="1.94818">
        <ele>223</ele>
        <time>2015-03-08T09:23:40Z</time>
      </trkpt>
      <trkpt lat="44.03589" lon="1.94813">
        <ele>218</ele>
        <time>2015-03-08T09:23:53Z</time>
      </trkpt>
      <trkpt lat="44.03602" lon="1.94812">
        <ele>217</ele>
        <time>2015-03-08T09:24:03Z</time>
      </trkpt>
      <trkpt lat="44.03611" lon="1.948">
        <ele>217</ele>
        <time>2015-03-08T09:24:13Z</time>
      </trkpt>
      <trkpt lat="44.03625" lon="1.94784">
        <ele>217</ele>
        <time>2015-03-08T09:24:23Z</time>
      </trkpt>
      <trkpt lat="44.03629" lon="1.94764">
        <ele>219</ele>
        <time>2015-03-08T09:24:33Z</time>
      </trkpt>
      <trkpt lat="44.03633" lon="1.9474">
        <ele>224</ele>
        <time>2015-03-08T09:24:45Z</time>
      </trkpt>
      <trkpt lat="44.03645" lon="1.94731">
        <ele>228</ele>
        <time>2015-03-08T09:24:55Z</time>
      </trkpt>
      <trkpt lat="44.03654" lon="1.94708">
        <ele>220</ele>
        <time>2015-03-08T09:25:10Z</time>
      </trkpt>
      <trkpt lat="44.03696" lon="1.94676">
        <ele>220</ele>
        <time>2015-03-08T09:25:20Z</time>
      </trkpt>
      <trkpt lat="44.03732" lon="1.94628">
        <ele>220</ele>
        <time>2015-03-08T09:25:30Z</time>
      </trkpt>
      <trkpt lat="44.03804" lon="1.94629">
        <ele>216</ele>
        <time>2015-03-08T09:25:40Z</time>
      </trkpt>
      <trkpt lat="44.03811" lon="1.94647">
        <ele>213</ele>
        <time>2015-03-08T09:25:50Z</time>
      </trkpt>
      <trkpt lat="44.03807" lon="1.94647">
        <ele>213</ele>
        <time>2015-03-08T09:26:04Z</time>
      </trkpt>
      <trkpt lat="44.03806" lon="1.94686">
        <ele>213</ele>
        <time>2015-03-08T09:26:14Z</time>
      </trkpt>
      <trkpt lat="44.03837" lon="1.94733">
        <ele>213</ele>
        <time>2015-03-08T09:26:24Z</time>
      </trkpt>
      <trkpt lat="44.03906" lon="1.94714">
        <ele>209</ele>
        <time>2015-03-08T09:26:34Z</time>
      </trkpt>
      <trkpt lat="44.03958" lon="1.94712">
        <ele>205</ele>
        <time>2015-03-08T09:26:44Z</time>
      </trkpt>
      <trkpt lat="44.04004" lon="1.9472">
        <ele>198</ele>
        <time>2015-03-08T09:26:54Z</time>
      </trkpt>
      <trkpt lat="44.0405" lon="1.94736">
        <ele>197</ele>
        <time>2015-03-08T09:27:04Z</time>
      </trkpt>
      <trkpt lat="44.04099" lon="1.94757">
        <ele>196</ele>
        <time>2015-03-08T09:27:14Z</time>
      </trkpt>
      <trkpt lat="44.04133" lon="1.9472">
        <ele>194</ele>
        <time>2015-03-08T09:27:24Z</time>
      </trkpt>
      <trkpt lat="44.04177" lon="1.94679">
        <ele>193</ele>
        <time>2015-03-08T09:27:34Z</time>
      </trkpt>
      <trkpt lat="44.0413" lon="1.94637">
        <ele>193</ele>
        <time>2015-03-08T09:27:44Z</time>
      </trkpt>
      <trkpt lat="44.04104" lon="1.94608">
        <ele>200</ele>
        <time>2015-03-08T09:27:54Z</time>
      </trkpt>
      <trkpt lat="44.04153" lon="1.94488">
        <ele>202</ele>
        <time>2015-03-08T09:28:05Z</time>
      </trkpt>
      <trkpt lat="44.04203" lon="1.94365">
        <ele>199</ele>
        <time>2015-03-08T09:28:15Z</time>
      </trkpt>
      <trkpt lat="44.04252" lon="1.9426">
        <ele>198</ele>
        <time>2015-03-08T09:28:25Z</time>
      </trkpt>
      <trkpt lat="44.0435" lon="1.94116">
        <ele>198</ele>
        <time>2015-03-08T09:28:36Z</time>
      </trkpt>
      <trkpt lat="44.04482" lon="1.94055">
        <ele>198</ele>
        <time>2015-03-08T09:28:46Z</time>
      </trkpt>
      <trkpt lat="44.04564" lon="1.93934">
        <ele>198</ele>
        <time>2015-03-08T09:28:56Z</time>
      </trkpt>
      <trkpt lat="44.04596" lon="1.93812">
        <ele>202</ele>
        <time>2015-03-08T09:29:06Z</time>
      </trkpt>
      <trkpt lat="44.04612" lon="1.93899">
        <ele>211</ele>
        <time>2015-03-08T09:29:17Z</time>
      </trkpt>
      <trkpt lat="44.04613" lon="1.94058">
        <ele>221</ele>
        <time>2015-03-08T09:29:27Z</time>
      </trkpt>
      <trkpt lat="44.04648" lon="1.94207">
        <ele>238</ele>
        <time>2015-03-08T09:29:37Z</time>
      </trkpt>
      <trkpt lat="44.04651" lon="1.94255">
        <ele>257</ele>
        <time>2015-03-08T09:29:47Z</time>
      </trkpt>
      <trkpt lat="44.04693" lon="1.94254">
        <ele>276</ele>
        <time>2015-03-08T09:29:57Z</time>
      </trkpt>
      <trkpt lat="44.04794" lon="1.94265">
        <ele>286</ele>
        <time>2015-03-08T09:30:07Z</time>
      </trkpt>
      <trkpt lat="44.04838" lon="1.9416">
        <ele>289</ele>
        <time>2015-03-08T09:30:18Z</time>
      </trkpt>
      <trkpt lat="44.04903" lon="1.94018">
        <ele>289</ele>
        <time>2015-03-08T09:30:28Z</time>
      </trkpt>
      <trkpt lat="44.05011" lon="1.93906">
        <ele>289</ele>
        <time>2015-03-08T09:30:38Z</time>
      </trkpt>
      <trkpt lat="44.05121" lon="1.93779">
        <ele>289</ele>
        <time>2015-03-08T09:30:48Z</time>
      </trkpt>
      <trkpt lat="44.05207" lon="1.93632">
        <ele>289</ele>
        <time>2015-03-08T09:30:58Z</time>
      </trkpt>
      <trkpt lat="44.05241" lon="1.93447">
        <ele>288</ele>
        <time>2015-03-08T09:31:08Z</time>
      </trkpt>
      <trkpt lat="44.05269" lon="1.93267">
        <ele>288</ele>
        <time>2015-03-08T09:31:18Z</time>
      </trkpt>
      <trkpt lat="44.05307" lon="1.93124">
        <ele>288</ele>
        <time>2015-03-08T09:31:28Z</time>
      </trkpt>
      <trkpt lat="44.05244" lon="1.93047">
        <ele>286</ele>
        <time>2015-03-08T09:31:38Z</time>
      </trkpt>
      <trkpt lat="44.05196" lon="1.92942">
        <ele>276</ele>
        <time>2015-03-08T09:31:48Z</time>
      </trkpt>
      <trkpt lat="44.05158" lon="1.92862">
        <ele>266</ele>
        <time>2015-03-08T09:31:58Z</time>
      </trkpt>
      <trkpt lat="44.05129" lon="1.92836">
        <ele>256</ele>
        <time>2015-03-08T09:32:08Z</time>
      </trkpt>
      <trkpt lat="44.05103" lon="1.92785">
        <ele>254</ele>
        <time>2015-03-08T09:32:18Z</time>
      </trkpt>
      <trkpt lat="44.05056" lon="1.92754">
        <ele>247</ele>
        <time>2015-03-08T09:32:28Z</time>
      </trkpt>
      <trkpt lat="44.05023" lon="1.92802">
        <ele>245</ele>
        <time>2015-03-08T09:32:38Z</time>
      </trkpt>
      <trkpt lat="44.05036" lon="1.92835">
        <ele>241</ele>
        <time>2015-03-08T09:33:03Z</time>
      </trkpt>
      <trkpt lat="44.0502" lon="1.92787">
        <ele>239</ele>
        <time>2015-03-08T09:33:13Z</time>
      </trkpt>
      <trkpt lat="44.05026" lon="1.92747">
        <ele>245</ele>
        <time>2015-03-08T09:33:23Z</time>
      </trkpt>
      <trkpt lat="44.0503" lon="1.92739">
        <ele>249</ele>
        <time>2015-03-08T09:33:33Z</time>
      </trkpt>
      <trkpt lat="44.05035" lon="1.92735">
        <ele>248</ele>
        <time>2015-03-08T09:33:44Z</time>
      </trkpt>
      <trkpt lat="44.05037" lon="1.92732">
        <ele>243</ele>
        <time>2015-03-08T09:33:55Z</time>
      </trkpt>
      <trkpt lat="44.05039" lon="1.92733">
        <ele>243</ele>
        <time>2015-03-08T09:34:24Z</time>
      </trkpt>
      <trkpt lat="44.05039" lon="1.92734">
        <ele>243</ele>
        <time>2015-03-08T09:34:35Z</time>
      </trkpt>
      <trkpt lat="44.0504" lon="1.92737">
        <ele>242</ele>
        <time>2015-03-08T09:34:51Z</time>
      </trkpt>
      <trkpt lat="44.0504" lon="1.9274">
        <ele>241</ele>
        <time>2015-03-08T09:35:03Z</time>
      </trkpt>
      <trkpt lat="44.05038" lon="1.92745">
        <ele>240</ele>
        <time>2015-03-08T09:35:14Z</time>
      </trkpt>
      <trkpt lat="44.05036" lon="1.9275">
        <ele>240</ele>
        <time>2015-03-08T09:35:25Z</time>
      </trkpt>
      <trkpt lat="44.05035" lon="1.92753">
        <ele>240</ele>
        <time>2015-03-08T09:35:36Z</time>
      </trkpt>
      <trkpt lat="44.05034" lon="1.92756">
        <ele>240</ele>
        <time>2015-03-08T09:35:55Z</time>
      </trkpt>
      <trkpt lat="44.05033" lon="1.92756">
        <ele>246</ele>
        <time>2015-03-08T09:36:48Z</time>
      </trkpt>
      <trkpt lat="44.05033" lon="1.92755">
        <ele>246</ele>
        <time>2015-03-08T09:37:08Z</time>
      </trkpt>
      <trkpt lat="44.05034" lon="1.92753">
        <ele>246</ele>
        <time>2015-03-08T09:37:34Z</time>
      </trkpt>
      <trkpt lat="44.05034" lon="1.92752">
        <ele>246</ele>
        <time>2015-03-08T09:37:58Z</time>
      </trkpt>
      <trkpt lat="44.05034" lon="1.9275">
        <ele>246</ele>
        <time>2015-03-08T09:38:13Z</time>
      </trkpt>
      <trkpt lat="44.05033" lon="1.92747">
        <ele>249</ele>
        <time>2015-03-08T09:38:51Z</time>
      </trkpt>
      <trkpt lat="44.05033" lon="1.92746">
        <ele>250</ele>
        <time>2015-03-08T09:39:45Z</time>
      </trkpt>
      <trkpt lat="44.05032" lon="1.92745">
        <ele>251</ele>
        <time>2015-03-08T09:40:33Z</time>
      </trkpt>
      <trkpt lat="44.05031" lon="1.92745">
        <ele>254</ele>
        <time>2015-03-08T09:41:11Z</time>
      </trkpt>
      <trkpt lat="44.05032" lon="1.92746">
        <ele>257</ele>
        <time>2015-03-08T09:42:06Z</time>
      </trkpt>
      <trkpt lat="44.05032" lon="1.9275">
        <ele>253</ele>
        <time>2015-03-08T09:42:21Z</time>
      </trkpt>
      <trkpt lat="44.05033" lon="1.92751">
        <ele>251</ele>
        <time>2015-03-08T09:42:33Z</time>
      </trkpt>
      <trkpt lat="44.05034" lon="1.92751">
        <ele>249</ele>
        <time>2015-03-08T09:42:44Z</time>
      </trkpt>
      <trkpt lat="44.05032" lon="1.92748">
        <ele>248</ele>
        <time>2015-03-08T09:42:58Z</time>
      </trkpt>
      <trkpt lat="44.05028" lon="1.92745">
        <ele>250</ele>
        <time>2015-03-08T09:43:09Z</time>
      </trkpt>
      <trkpt lat="44.05029" lon="1.9274">
        <ele>250</ele>
        <time>2015-03-08T09:43:22Z</time>
      </trkpt>
      <trkpt lat="44.05031" lon="1.92738">
        <ele>250</ele>
        <time>2015-03-08T09:43:36Z</time>
      </trkpt>
      <trkpt lat="44.0503" lon="1.92736">
        <ele>248</ele>
        <time>2015-03-08T09:43:58Z</time>
      </trkpt>
      <trkpt lat="44.05048" lon="1.92748">
        <ele>247</ele>
        <time>2015-03-08T09:44:09Z</time>
      </trkpt>
      <trkpt lat="44.05083" lon="1.92754">
        <ele>247</ele>
        <time>2015-03-08T09:44:19Z</time>
      </trkpt>
      <trkpt lat="44.05108" lon="1.92795">
        <ele>247</ele>
        <time>2015-03-08T09:44:30Z</time>
      </trkpt>
      <trkpt lat="44.05128" lon="1.92827">
        <ele>252</ele>
        <time>2015-03-08T09:44:40Z</time>
      </trkpt>
      <trkpt lat="44.05141" lon="1.92822">
        <ele>257</ele>
        <time>2015-03-08T09:44:50Z</time>
      </trkpt>
      <trkpt lat="44.05148" lon="1.9281">
        <ele>262</ele>
        <time>2015-03-08T09:45:00Z</time>
      </trkpt>
      <trkpt lat="44.05143" lon="1.92769">
        <ele>262</ele>
        <time>2015-03-08T09:45:10Z</time>
      </trkpt>
      <trkpt lat="44.05143" lon="1.92719">
        <ele>258</ele>
        <time>2015-03-08T09:45:20Z</time>
      </trkpt>
      <trkpt lat="44.0515" lon="1.92665">
        <ele>247</ele>
        <time>2015-03-08T09:45:31Z</time>
      </trkpt>
      <trkpt lat="44.05141" lon="1.92618">
        <ele>241</ele>
        <time>2015-03-08T09:45:41Z</time>
      </trkpt>
      <trkpt lat="44.05085" lon="1.92558">
        <ele>234</ele>
        <time>2015-03-08T09:45:52Z</time>
      </trkpt>
      <trkpt lat="44.05027" lon="1.92574">
        <ele>228</ele>
        <time>2015-03-08T09:46:02Z</time>
      </trkpt>
      <trkpt lat="44.04976" lon="1.92666">
        <ele>218</ele>
        <time>2015-03-08T09:46:12Z</time>
      </trkpt>
      <trkpt lat="44.04923" lon="1.92751">
        <ele>208</ele>
        <time>2015-03-08T09:46:22Z</time>
      </trkpt>
      <trkpt lat="44.04874" lon="1.92819">
        <ele>194</ele>
        <time>2015-03-08T09:46:33Z</time>
      </trkpt>
      <trkpt lat="44.04815" lon="1.92892">
        <ele>188</ele>
        <time>2015-03-08T09:46:43Z</time>
      </trkpt>
      <trkpt lat="44.04741" lon="1.93013">
        <ele>187</ele>
        <time>2015-03-08T09:46:53Z</time>
      </trkpt>
      <trkpt lat="44.04697" lon="1.93189">
        <ele>187</ele>
        <time>2015-03-08T09:47:03Z</time>
      </trkpt>
      <trkpt lat="44.0466" lon="1.93354">
        <ele>188</ele>
        <time>2015-03-08T09:47:13Z</time>
      </trkpt>
      <trkpt lat="44.04591" lon="1.93477">
        <ele>191</ele>
        <time>2015-03-08T09:47:23Z</time>
      </trkpt>
      <trkpt lat="44.04491" lon="1.93432">
        <ele>191</ele>
        <time>2015-03-08T09:47:33Z</time>
      </trkpt>
      <trkpt lat="44.044" lon="1.9338">
        <ele>192</ele>
        <time>2015-03-08T09:47:43Z</time>
      </trkpt>
      <trkpt lat="44.04408" lon="1.93354">
        <ele>203</ele>
        <time>2015-03-08T09:47:54Z</time>
      </trkpt>
      <trkpt lat="44.04439" lon="1.93271">
        <ele>210</ele>
        <time>2015-03-08T09:48:04Z</time>
      </trkpt>
      <trkpt lat="44.04441" lon="1.93186">
        <ele>211</ele>
        <time>2015-03-08T09:48:14Z</time>
      </trkpt>
      <trkpt lat="44.04416" lon="1.93144">
        <ele>210</ele>
        <time>2015-03-08T09:48:24Z</time>
      </trkpt>
      <trkpt lat="44.04436" lon="1.93081">
        <ele>208</ele>
        <time>2015-03-08T09:48:35Z</time>
      </trkpt>
      <trkpt lat="44.04491" lon="1.92963">
        <ele>212</ele>
        <time>2015-03-08T09:48:45Z</time>
      </trkpt>
      <trkpt lat="44.04529" lon="1.92887">
        <ele>218</ele>
        <time>2015-03-08T09:48:55Z</time>
      </trkpt>
      <trkpt lat="44.04548" lon="1.92791">
        <ele>215</ele>
        <time>2015-03-08T09:49:05Z</time>
      </trkpt>
      <trkpt lat="44.04605" lon="1.92704">
        <ele>217</ele>
        <time>2015-03-08T09:49:16Z</time>
      </trkpt>
      <trkpt lat="44.04634" lon="1.92571">
        <ele>224</ele>
        <time>2015-03-08T09:49:26Z</time>
      </trkpt>
      <trkpt lat="44.04689" lon="1.92483">
        <ele>225</ele>
        <time>2015-03-08T09:49:37Z</time>
      </trkpt>
      <trkpt lat="44.04691" lon="1.9237">
        <ele>225</ele>
        <time>2015-03-08T09:49:48Z</time>
      </trkpt>
      <trkpt lat="44.04681" lon="1.9227">
        <ele>225</ele>
        <time>2015-03-08T09:49:58Z</time>
      </trkpt>
      <trkpt lat="44.04644" lon="1.92181">
        <ele>224</ele>
        <time>2015-03-08T09:50:08Z</time>
      </trkpt>
      <trkpt lat="44.04738" lon="1.92116">
        <ele>224</ele>
        <time>2015-03-08T09:50:18Z</time>
      </trkpt>
      <trkpt lat="44.04794" lon="1.91962">
        <ele>224</ele>
        <time>2015-03-08T09:50:28Z</time>
      </trkpt>
      <trkpt lat="44.04832" lon="1.91831">
        <ele>219</ele>
        <time>2015-03-08T09:50:38Z</time>
      </trkpt>
      <trkpt lat="44.048" lon="1.91731">
        <ele>219</ele>
        <time>2015-03-08T09:50:48Z</time>
      </trkpt>
      <trkpt lat="44.04711" lon="1.917">
        <ele>227</ele>
        <time>2015-03-08T09:50:58Z</time>
      </trkpt>
      <trkpt lat="44.04562" lon="1.91768">
        <ele>236</ele>
        <time>2015-03-08T09:51:08Z</time>
      </trkpt>
      <trkpt lat="44.04514" lon="1.91833">
        <ele>242</ele>
        <time>2015-03-08T09:51:18Z</time>
      </trkpt>
      <trkpt lat="44.04462" lon="1.91826">
        <ele>242</ele>
        <time>2015-03-08T09:51:28Z</time>
      </trkpt>
      <trkpt lat="44.04395" lon="1.91865">
        <ele>238</ele>
        <time>2015-03-08T09:51:38Z</time>
      </trkpt>
      <trkpt lat="44.04295" lon="1.91918">
        <ele>223</ele>
        <time>2015-03-08T09:51:48Z</time>
      </trkpt>
      <trkpt lat="44.04208" lon="1.91991">
        <ele>204</ele>
        <time>2015-03-08T09:51:58Z</time>
      </trkpt>
      <trkpt lat="44.04156" lon="1.92114">
        <ele>194</ele>
        <time>2015-03-08T09:52:08Z</time>
      </trkpt>
      <trkpt lat="44.04059" lon="1.92217">
        <ele>191</ele>
        <time>2015-03-08T09:52:18Z</time>
      </trkpt>
      <trkpt lat="44.03975" lon="1.92173">
        <ele>197</ele>
        <time>2015-03-08T09:52:28Z</time>
      </trkpt>
      <trkpt lat="44.03872" lon="1.92149">
        <ele>208</ele>
        <time>2015-03-08T09:52:38Z</time>
      </trkpt>
      <trkpt lat="44.03773" lon="1.9218">
        <ele>210</ele>
        <time>2015-03-08T09:52:48Z</time>
      </trkpt>
      <trkpt lat="44.03661" lon="1.92161">
        <ele>214</ele>
        <time>2015-03-08T09:52:58Z</time>
      </trkpt>
      <trkpt lat="44.03532" lon="1.9219">
        <ele>223</ele>
        <time>2015-03-08T09:53:08Z</time>
      </trkpt>
      <trkpt lat="44.034" lon="1.92126">
        <ele>237</ele>
        <time>2015-03-08T09:53:18Z</time>
      </trkpt>
      <trkpt lat="44.03313" lon="1.92113">
        <ele>247</ele>
        <time>2015-03-08T09:53:28Z</time>
      </trkpt>
      <trkpt lat="44.03203" lon="1.92247">
        <ele>252</ele>
        <time>2015-03-08T09:53:38Z</time>
      </trkpt>
      <trkpt lat="44.03134" lon="1.92466">
        <ele>258</ele>
        <time>2015-03-08T09:53:48Z</time>
      </trkpt>
      <trkpt lat="44.03098" lon="1.92549">
        <ele>265</ele>
        <time>2015-03-08T09:53:58Z</time>
      </trkpt>
      <trkpt lat="44.03033" lon="1.9241">
        <ele>266</ele>
        <time>2015-03-08T09:54:08Z</time>
      </trkpt>
      <trkpt lat="44.03001" lon="1.92332">
        <ele>266</ele>
        <time>2015-03-08T09:54:18Z</time>
      </trkpt>
      <trkpt lat="44.03028" lon="1.92191">
        <ele>266</ele>
        <time>2015-03-08T09:54:28Z</time>
      </trkpt>
      <trkpt lat="44.03032" lon="1.92063">
        <ele>266</ele>
        <time>2015-03-08T09:54:38Z</time>
      </trkpt>
      <trkpt lat="44.02937" lon="1.91913">
        <ele>266</ele>
        <time>2015-03-08T09:54:48Z</time>
      </trkpt>
      <trkpt lat="44.02845" lon="1.91695">
        <ele>260</ele>
        <time>2015-03-08T09:54:58Z</time>
      </trkpt>
      <trkpt lat="44.02789" lon="1.91547">
        <ele>260</ele>
        <time>2015-03-08T09:55:08Z</time>
      </trkpt>
      <trkpt lat="44.02691" lon="1.91496">
        <ele>264</ele>
        <time>2015-03-08T09:55:18Z</time>
      </trkpt>
      <trkpt lat="44.02559" lon="1.91445">
        <ele>265</ele>
        <time>2015-03-08T09:55:28Z</time>
      </trkpt>
      <trkpt lat="44.02387" lon="1.91422">
        <ele>261</ele>
        <time>2015-03-08T09:55:38Z</time>
      </trkpt>
      <trkpt lat="44.02298" lon="1.91392">
        <ele>244</ele>
        <time>2015-03-08T09:55:48Z</time>
      </trkpt>
      <trkpt lat="44.02217" lon="1.91312">
        <ele>236</ele>
        <time>2015-03-08T09:55:58Z</time>
      </trkpt>
      <trkpt lat="44.02143" lon="1.91263">
        <ele>231</ele>
        <time>2015-03-08T09:56:08Z</time>
      </trkpt>
      <trkpt lat="44.02084" lon="1.91235">
        <ele>229</ele>
        <time>2015-03-08T09:56:18Z</time>
      </trkpt>
      <trkpt lat="44.02057" lon="1.91179">
        <ele>225</ele>
        <time>2015-03-08T09:56:28Z</time>
      </trkpt>
      <trkpt lat="44.01983" lon="1.91093">
        <ele>216</ele>
        <time>2015-03-08T09:56:38Z</time>
      </trkpt>
      <trkpt lat="44.01981" lon="1.9109">
        <ele>215</ele>
        <time>2015-03-08T09:56:49Z</time>
      </trkpt>
      <trkpt lat="44.01986" lon="1.91087">
        <ele>221</ele>
        <time>2015-03-08T09:56:59Z</time>
      </trkpt>
      <trkpt lat="44.01986" lon="1.91086">
        <ele>229</ele>
        <time>2015-03-08T09:57:13Z</time>
      </trkpt>
      <trkpt lat="44.01987" lon="1.91088">
        <ele>229</ele>
        <time>2015-03-08T09:57:26Z</time>
      </trkpt>
      <trkpt lat="44.01986" lon="1.91086">
        <ele>231</ele>
        <time>2015-03-08T09:57:37Z</time>
      </trkpt>
      <trkpt lat="44.01982" lon="1.9108">
        <ele>232</ele>
        <time>2015-03-08T09:57:47Z</time>
      </trkpt>
      <trkpt lat="44.01982" lon="1.91079">
        <ele>232</ele>
        <time>2015-03-08T09:58:03Z</time>
      </trkpt>
      <trkpt lat="44.01983" lon="1.91079">
        <ele>232</ele>
        <time>2015-03-08T09:58:33Z</time>
      </trkpt>
      <trkpt lat="44.01986" lon="1.91079">
        <ele>234</ele>
        <time>2015-03-08T09:58:46Z</time>
      </trkpt>
      <trkpt lat="44.01987" lon="1.91078">
        <ele>234</ele>
        <time>2015-03-08T10:00:06Z</time>
      </trkpt>
      <trkpt lat="44.01984" lon="1.9108">
        <ele>233</ele>
        <time>2015-03-08T10:00:24Z</time>
      </trkpt>
      <trkpt lat="44.0198" lon="1.91081">
        <ele>233</ele>
        <time>2015-03-08T10:00:36Z</time>
      </trkpt>
      <trkpt lat="44.01976" lon="1.91083">
        <ele>233</ele>
        <time>2015-03-08T10:00:46Z</time>
      </trkpt>
      <trkpt lat="44.01971" lon="1.91083">
        <ele>232</ele>
        <time>2015-03-08T10:00:56Z</time>
      </trkpt>
      <trkpt lat="44.01946" lon="1.9107">
        <ele>232</ele>
        <time>2015-03-08T10:01:06Z</time>
      </trkpt>
      <trkpt lat="44.0189" lon="1.91072">
        <ele>232</ele>
        <time>2015-03-08T10:01:16Z</time>
      </trkpt>
      <trkpt lat="44.01848" lon="1.91062">
        <ele>231</ele>
        <time>2015-03-08T10:01:26Z</time>
      </trkpt>
      <trkpt lat="44.01762" lon="1.90945">
        <ele>231</ele>
        <time>2015-03-08T10:01:36Z</time>
      </trkpt>
      <trkpt lat="44.01734" lon="1.90806">
        <ele>230</ele>
        <time>2015-03-08T10:01:46Z</time>
      </trkpt>
      <trkpt lat="44.01646" lon="1.90737">
        <ele>222</ele>
        <time>2015-03-08T10:01:56Z</time>
      </trkpt>
      <trkpt lat="44.01584" lon="1.90624">
        <ele>217</ele>
        <time>2015-03-08T10:02:06Z</time>
      </trkpt>
      <trkpt lat="44.01467" lon="1.9059">
        <ele>217</ele>
        <time>2015-03-08T10:02:16Z</time>
      </trkpt>
      <trkpt lat="44.0134" lon="1.90491">
        <ele>217</ele>
        <time>2015-03-08T10:02:26Z</time>
      </trkpt>
      <trkpt lat="44.01302" lon="1.90406">
        <ele>217</ele>
        <time>2015-03-08T10:02:36Z</time>
      </trkpt>
      <trkpt lat="44.01298" lon="1.90437">
        <ele>220</ele>
        <time>2015-03-08T10:02:47Z</time>
      </trkpt>
      <trkpt lat="44.0129" lon="1.90522">
        <ele>223</ele>
        <time>2015-03-08T10:02:57Z</time>
      </trkpt>
      <trkpt lat="44.01262" lon="1.9062">
        <ele>223</ele>
        <time>2015-03-08T10:03:07Z</time>
      </trkpt>
      <trkpt lat="44.01239" lon="1.90714">
        <ele>223</ele>
        <time>2015-03-08T10:03:17Z</time>
      </trkpt>
      <trkpt lat="44.01184" lon="1.90767">
        <ele>225</ele>
        <time>2015-03-08T10:03:27Z</time>
      </trkpt>
      <trkpt lat="44.01172" lon="1.90701">
        <ele>227</ele>
        <time>2015-03-08T10:03:37Z</time>
      </trkpt>
      <trkpt lat="44.01192" lon="1.90666">
        <ele>229</ele>
        <time>2015-03-08T10:03:47Z</time>
      </trkpt>
      <trkpt lat="44.01218" lon="1.90642">
        <ele>232</ele>
        <time>2015-03-08T10:03:57Z</time>
      </trkpt>
      <trkpt lat="44.01234" lon="1.90611">
        <ele>234</ele>
        <time>2015-03-08T10:04:07Z</time>
      </trkpt>
      <trkpt lat="44.01249" lon="1.90559">
        <ele>236</ele>
        <time>2015-03-08T10:04:17Z</time>
      </trkpt>
      <trkpt lat="44.01257" lon="1.90528">
        <ele>237</ele>
        <time>2015-03-08T10:04:28Z</time>
      </trkpt>
      <trkpt lat="44.01262" lon="1.90487">
        <ele>241</ele>
        <time>2015-03-08T10:04:38Z</time>
      </trkpt>
      <trkpt lat="44.01268" lon="1.90445">
        <ele>241</ele>
        <time>2015-03-08T10:04:48Z</time>
      </trkpt>
      <trkpt lat="44.0126" lon="1.90418">
        <ele>241</ele>
        <time>2015-03-08T10:04:59Z</time>
      </trkpt>
      <trkpt lat="44.01236" lon="1.90394">
        <ele>241</ele>
        <time>2015-03-08T10:05:09Z</time>
      </trkpt>
      <trkpt lat="44.01207" lon="1.90387">
        <ele>241</ele>
        <time>2015-03-08T10:05:19Z</time>
      </trkpt>
      <trkpt lat="44.01177" lon="1.90354">
        <ele>241</ele>
        <time>2015-03-08T10:05:29Z</time>
      </trkpt>
      <trkpt lat="44.01146" lon="1.90345">
        <ele>241</ele>
        <time>2015-03-08T10:05:39Z</time>
      </trkpt>
      <trkpt lat="44.01106" lon="1.90329">
        <ele>241</ele>
        <time>2015-03-08T10:05:49Z</time>
      </trkpt>
      <trkpt lat="44.01081" lon="1.903">
        <ele>240</ele>
        <time>2015-03-08T10:05:59Z</time>
      </trkpt>
      <trkpt lat="44.01054" lon="1.90295">
        <ele>239</ele>
        <time>2015-03-08T10:06:09Z</time>
      </trkpt>
      <trkpt lat="44.01044" lon="1.90281">
        <ele>239</ele>
        <time>2015-03-08T10:06:21Z</time>
      </trkpt>
      <trkpt lat="44.01045" lon="1.90276">
        <ele>239</ele>
        <time>2015-03-08T10:06:32Z</time>
      </trkpt>
      <trkpt lat="44.01046" lon="1.90272">
        <ele>239</ele>
        <time>2015-03-08T10:06:46Z</time>
      </trkpt>
      <trkpt lat="44.01048" lon="1.90274">
        <ele>239</ele>
        <time>2015-03-08T10:07:17Z</time>
      </trkpt>
      <trkpt lat="44.01048" lon="1.90273">
        <ele>239</ele>
        <time>2015-03-08T10:08:10Z</time>
      </trkpt>
      <trkpt lat="44.01036" lon="1.9024">
        <ele>236</ele>
        <time>2015-03-08T10:08:20Z</time>
      </trkpt>
      <trkpt lat="44.01031" lon="1.90203">
        <ele>226</ele>
        <time>2015-03-08T10:08:30Z</time>
      </trkpt>
      <trkpt lat="44.01046" lon="1.90202">
        <ele>223</ele>
        <time>2015-03-08T10:08:40Z</time>
      </trkpt>
      <trkpt lat="44.01031" lon="1.90207">
        <ele>218</ele>
        <time>2015-03-08T10:08:50Z</time>
      </trkpt>
      <trkpt lat="44.01047" lon="1.90273">
        <ele>218</ele>
        <time>2015-03-08T10:09:00Z</time>
      </trkpt>
      <trkpt lat="44.01041" lon="1.90288">
        <ele>228</ele>
        <time>2015-03-08T10:09:10Z</time>
      </trkpt>
      <trkpt lat="44.01044" lon="1.90278">
        <ele>231</ele>
        <time>2015-03-08T10:09:22Z</time>
      </trkpt>
      <trkpt lat="44.01043" lon="1.90279">
        <ele>233</ele>
        <time>2015-03-08T10:09:43Z</time>
      </trkpt>
      <trkpt lat="44.01042" lon="1.9028">
        <ele>233</ele>
        <time>2015-03-08T10:09:56Z</time>
      </trkpt>
      <trkpt lat="44.01041" lon="1.90278">
        <ele>234</ele>
        <time>2015-03-08T10:10:14Z</time>
      </trkpt>
      <trkpt lat="44.01043" lon="1.90274">
        <ele>235</ele>
        <time>2015-03-08T10:10:25Z</time>
      </trkpt>
      <trkpt lat="44.01043" lon="1.90275">
        <ele>235</ele>
        <time>2015-03-08T10:10:39Z</time>
      </trkpt>
      <trkpt lat="44.01032" lon="1.90244">
        <ele>235</ele>
        <time>2015-03-08T10:10:49Z</time>
      </trkpt>
      <trkpt lat="44.01028" lon="1.902">
        <ele>225</ele>
        <time>2015-03-08T10:10:59Z</time>
      </trkpt>
      <trkpt lat="44.01016" lon="1.90194">
        <ele>223</ele>
        <time>2015-03-08T10:11:20Z</time>
      </trkpt>
      <trkpt lat="44.00951" lon="1.90178">
        <ele>217</ele>
        <time>2015-03-08T10:11:31Z</time>
      </trkpt>
      <trkpt lat="44.00888" lon="1.9016">
        <ele>212</ele>
        <time>2015-03-08T10:11:42Z</time>
      </trkpt>
      <trkpt lat="44.00834" lon="1.90146">
        <ele>210</ele>
        <time>2015-03-08T10:11:52Z</time>
      </trkpt>
      <trkpt lat="44.00754" lon="1.90106">
        <ele>207</ele>
        <time>2015-03-08T10:12:02Z</time>
      </trkpt>
      <trkpt lat="44.00685" lon="1.9004">
        <ele>205</ele>
        <time>2015-03-08T10:12:12Z</time>
      </trkpt>
      <trkpt lat="44.00583" lon="1.89964">
        <ele>205</ele>
        <time>2015-03-08T10:12:23Z</time>
      </trkpt>
      <trkpt lat="44.00472" lon="1.89934">
        <ele>203</ele>
        <time>2015-03-08T10:12:33Z</time>
      </trkpt>
      <trkpt lat="44.00381" lon="1.89856">
        <ele>200</ele>
        <time>2015-03-08T10:12:43Z</time>
      </trkpt>
      <trkpt lat="44.00275" lon="1.8984">
        <ele>200</ele>
        <time>2015-03-08T10:12:54Z</time>
      </trkpt>
      <trkpt lat="44.00207" lon="1.89873">
        <ele>207</ele>
        <time>2015-03-08T10:13:04Z</time>
      </trkpt>
      <trkpt lat="44.00216" lon="1.89984">
        <ele>209</ele>
        <time>2015-03-08T10:13:14Z</time>
      </trkpt>
      <trkpt lat="44.00173" lon="1.90028">
        <ele>201</ele>
        <time>2015-03-08T10:13:24Z</time>
      </trkpt>
      <trkpt lat="44.0014" lon="1.90182">
        <ele>193</ele>
        <time>2015-03-08T10:13:34Z</time>
      </trkpt>
      <trkpt lat="44.00068" lon="1.90144">
        <ele>197</ele>
        <time>2015-03-08T10:13:44Z</time>
      </trkpt>
      <trkpt lat="44.00026" lon="1.90069">
        <ele>200</ele>
        <time>2015-03-08T10:13:54Z</time>
      </trkpt>
      <trkpt lat="43.99967" lon="1.90088">
        <ele>208</ele>
        <time>2015-03-08T10:14:04Z</time>
      </trkpt>
      <trkpt lat="43.99952" lon="1.90076">
        <ele>221</ele>
        <time>2015-03-08T10:14:15Z</time>
      </trkpt>
      <trkpt lat="43.99946" lon="1.90015">
        <ele>223</ele>
        <time>2015-03-08T10:14:25Z</time>
      </trkpt>
      <trkpt lat="43.99992" lon="1.90021">
        <ele>222</ele>
        <time>2015-03-08T10:14:35Z</time>
      </trkpt>
      <trkpt lat="44.00003" lon="1.89979">
        <ele>212</ele>
        <time>2015-03-08T10:14:45Z</time>
      </trkpt>
      <trkpt lat="43.99954" lon="1.89831">
        <ele>206</ele>
        <time>2015-03-08T10:14:55Z</time>
      </trkpt>
      <trkpt lat="43.99861" lon="1.89756">
        <ele>206</ele>
        <time>2015-03-08T10:15:06Z</time>
      </trkpt>
      <trkpt lat="43.99768" lon="1.89758">
        <ele>205</ele>
        <time>2015-03-08T10:15:16Z</time>
      </trkpt>
      <trkpt lat="43.99769" lon="1.89962">
        <ele>213</ele>
        <time>2015-03-08T10:15:27Z</time>
      </trkpt>
      <trkpt lat="43.99778" lon="1.90178">
        <ele>222</ele>
        <time>2015-03-08T10:15:37Z</time>
      </trkpt>
      <trkpt lat="43.99694" lon="1.90299">
        <ele>227</ele>
        <time>2015-03-08T10:15:47Z</time>
      </trkpt>
      <trkpt lat="43.99572" lon="1.90178">
        <ele>229</ele>
        <time>2015-03-08T10:15:58Z</time>
      </trkpt>
      <trkpt lat="43.99525" lon="1.90127">
        <ele>230</ele>
        <time>2015-03-08T10:16:08Z</time>
      </trkpt>
      <trkpt lat="43.99538" lon="1.90058">
        <ele>232</ele>
        <time>2015-03-08T10:16:18Z</time>
      </trkpt>
      <trkpt lat="43.99567" lon="1.89938">
        <ele>232</ele>
        <time>2015-03-08T10:16:28Z</time>
      </trkpt>
      <trkpt lat="43.99586" lon="1.89965">
        <ele>232</ele>
        <time>2015-03-08T10:16:38Z</time>
      </trkpt>
      <trkpt lat="43.99619" lon="1.8989">
        <ele>233</ele>
        <time>2015-03-08T10:16:48Z</time>
      </trkpt>
      <trkpt lat="43.9958" lon="1.89883">
        <ele>233</ele>
        <time>2015-03-08T10:16:58Z</time>
      </trkpt>
      <trkpt lat="43.99549" lon="1.89927">
        <ele>233</ele>
        <time>2015-03-08T10:17:09Z</time>
      </trkpt>
      <trkpt lat="43.99527" lon="1.90004">
        <ele>233</ele>
        <time>2015-03-08T10:17:19Z</time>
      </trkpt>
      <trkpt lat="43.99469" lon="1.90018">
        <ele>233</ele>
        <time>2015-03-08T10:17:29Z</time>
      </trkpt>
      <trkpt lat="43.99429" lon="1.90021">
        <ele>233</ele>
        <time>2015-03-08T10:17:39Z</time>
      </trkpt>
      <trkpt lat="43.99421" lon="1.90028">
        <ele>233</ele>
        <time>2015-03-08T10:17:49Z</time>
      </trkpt>
      <trkpt lat="43.99342" lon="1.90002">
        <ele>233</ele>
        <time>2015-03-08T10:17:59Z</time>
      </trkpt>
      <trkpt lat="43.99337" lon="1.89891">
        <ele>233</ele>
        <time>2015-03-08T10:18:09Z</time>
      </trkpt>
      <trkpt lat="43.99254" lon="1.8987">
        <ele>233</ele>
        <time>2015-03-08T10:18:19Z</time>
      </trkpt>
      <trkpt lat="43.99219" lon="1.89877">
        <ele>230</ele>
        <time>2015-03-08T10:18:29Z</time>
      </trkpt>
      <trkpt lat="43.99191" lon="1.89914">
        <ele>230</ele>
        <time>2015-03-08T10:18:39Z</time>
      </trkpt>
      <trkpt lat="43.99167" lon="1.89934">
        <ele>230</ele>
        <time>2015-03-08T10:18:49Z</time>
      </trkpt>
      <trkpt lat="43.99162" lon="1.89929">
        <ele>230</ele>
        <time>2015-03-08T10:18:59Z</time>
      </trkpt>
      <trkpt lat="43.99076" lon="1.8984">
        <ele>227</ele>
        <time>2015-03-08T10:19:10Z</time>
      </trkpt>
      <trkpt lat="43.98996" lon="1.89742">
        <ele>217</ele>
        <time>2015-03-08T10:19:20Z</time>
      </trkpt>
      <trkpt lat="43.98925" lon="1.89646">
        <ele>207</ele>
        <time>2015-03-08T10:19:30Z</time>
      </trkpt>
      <trkpt lat="43.98857" lon="1.89576">
        <ele>187</ele>
        <time>2015-03-08T10:19:40Z</time>
      </trkpt>
      <trkpt lat="43.98827" lon="1.89563">
        <ele>180</ele>
        <time>2015-03-08T10:19:50Z</time>
      </trkpt>
      <trkpt lat="43.987" lon="1.89528">
        <ele>177</ele>
        <time>2015-03-08T10:20:00Z</time>
      </trkpt>
      <trkpt lat="43.98717" lon="1.8927">
        <ele>177</ele>
        <time>2015-03-08T10:20:11Z</time>
      </trkpt>
      <trkpt lat="43.98751" lon="1.8904">
        <ele>175</ele>
        <time>2015-03-08T10:20:21Z</time>
      </trkpt>
      <trkpt lat="43.98531" lon="1.88986">
        <ele>175</ele>
        <time>2015-03-08T10:20:32Z</time>
      </trkpt>
      <trkpt lat="43.9837" lon="1.88909">
        <ele>185</ele>
        <time>2015-03-08T10:20:42Z</time>
      </trkpt>
      <trkpt lat="43.98235" lon="1.88848">
        <ele>195</ele>
        <time>2015-03-08T10:20:52Z</time>
      </trkpt>
      <trkpt lat="43.98181" lon="1.8884">
        <ele>201</ele>
        <time>2015-03-08T10:21:02Z</time>
      </trkpt>
      <trkpt lat="43.9811" lon="1.88829">
        <ele>205</ele>
        <time>2015-03-08T10:21:12Z</time>
      </trkpt>
      <trkpt lat="43.98026" lon="1.88884">
        <ele>213</ele>
        <time>2015-03-08T10:21:22Z</time>
      </trkpt>
      <trkpt lat="43.9807" lon="1.88996">
        <ele>218</ele>
        <time>2015-03-08T10:21:33Z</time>
      </trkpt>
      <trkpt lat="43.98108" lon="1.89238">
        <ele>218</ele>
        <time>2015-03-08T10:21:43Z</time>
      </trkpt>
      <trkpt lat="43.98072" lon="1.89345">
        <ele>218</ele>
        <time>2015-03-08T10:21:53Z</time>
      </trkpt>
      <trkpt lat="43.98038" lon="1.89474">
        <ele>214</ele>
        <time>2015-03-08T10:22:03Z</time>
      </trkpt>
      <trkpt lat="43.98074" lon="1.8958">
        <ele>213</ele>
        <time>2015-03-08T10:22:13Z</time>
      </trkpt>
      <trkpt lat="43.98089" lon="1.8969">
        <ele>210</ele>
        <time>2015-03-08T10:22:23Z</time>
      </trkpt>
      <trkpt lat="43.98074" lon="1.8981">
        <ele>206</ele>
        <time>2015-03-08T10:22:33Z</time>
      </trkpt>
      <trkpt lat="43.98062" lon="1.89875">
        <ele>204</ele>
        <time>2015-03-08T10:22:43Z</time>
      </trkpt>
      <trkpt lat="43.98093" lon="1.8996">
        <ele>199</ele>
        <time>2015-03-08T10:22:53Z</time>
      </trkpt>
      <trkpt lat="43.98088" lon="1.90067">
        <ele>197</ele>
        <time>2015-03-08T10:23:03Z</time>
      </trkpt>
      <trkpt lat="43.98073" lon="1.90182">
        <ele>200</ele>
        <time>2015-03-08T10:23:13Z</time>
      </trkpt>
      <trkpt lat="43.9808" lon="1.90303">
        <ele>205</ele>
        <time>2015-03-08T10:23:23Z</time>
      </trkpt>
      <trkpt lat="43.9808" lon="1.90314">
        <ele>209</ele>
        <time>2015-03-08T10:23:37Z</time>
      </trkpt>
      <trkpt lat="43.98081" lon="1.90315">
        <ele>212</ele>
        <time>2015-03-08T10:23:53Z</time>
      </trkpt>
      <trkpt lat="43.98077" lon="1.90313">
        <ele>212</ele>
        <time>2015-03-08T10:24:10Z</time>
      </trkpt>
      <trkpt lat="43.98003" lon="1.9025">
        <ele>212</ele>
        <time>2015-03-08T10:24:21Z</time>
      </trkpt>
      <trkpt lat="43.979" lon="1.90172">
        <ele>207</ele>
        <time>2015-03-08T10:24:31Z</time>
      </trkpt>
      <trkpt lat="43.97832" lon="1.90164">
        <ele>204</ele>
        <time>2015-03-08T10:24:41Z</time>
      </trkpt>
      <trkpt lat="43.97784" lon="1.90183">
        <ele>199</ele>
        <time>2015-03-08T10:24:51Z</time>
      </trkpt>
      <trkpt lat="43.97763" lon="1.90171">
        <ele>196</ele>
        <time>2015-03-08T10:25:01Z</time>
      </trkpt>
      <trkpt lat="43.97786" lon="1.90102">
        <ele>195</ele>
        <time>2015-03-08T10:25:11Z</time>
      </trkpt>
      <trkpt lat="43.97787" lon="1.90007">
        <ele>195</ele>
        <time>2015-03-08T10:25:21Z</time>
      </trkpt>
      <trkpt lat="43.97719" lon="1.89882">
        <ele>195</ele>
        <time>2015-03-08T10:25:32Z</time>
      </trkpt>
      <trkpt lat="43.97635" lon="1.8976">
        <ele>199</ele>
        <time>2015-03-08T10:25:42Z</time>
      </trkpt>
      <trkpt lat="43.97531" lon="1.89567">
        <ele>208</ele>
        <time>2015-03-08T10:25:52Z</time>
      </trkpt>
      <trkpt lat="43.97361" lon="1.89399">
        <ele>218</ele>
        <time>2015-03-08T10:26:02Z</time>
      </trkpt>
      <trkpt lat="43.97323" lon="1.89361">
        <ele>229</ele>
        <time>2015-03-08T10:26:12Z</time>
      </trkpt>
      <trkpt lat="43.97302" lon="1.89223">
        <ele>234</ele>
        <time>2015-03-08T10:26:23Z</time>
      </trkpt>
      <trkpt lat="43.97267" lon="1.8905">
        <ele>234</ele>
        <time>2015-03-08T10:26:33Z</time>
      </trkpt>
      <trkpt lat="43.97229" lon="1.88865">
        <ele>227</ele>
        <time>2015-03-08T10:26:43Z</time>
      </trkpt>
      <trkpt lat="43.97171" lon="1.88683">
        <ele>217</ele>
        <time>2015-03-08T10:26:53Z</time>
      </trkpt>
      <trkpt lat="43.97166" lon="1.88512">
        <ele>213</ele>
        <time>2015-03-08T10:27:03Z</time>
      </trkpt>
      <trkpt lat="43.9714" lon="1.88435">
        <ele>213</ele>
        <time>2015-03-08T10:27:13Z</time>
      </trkpt>
      <trkpt lat="43.96988" lon="1.88486">
        <ele>214</ele>
        <time>2015-03-08T10:27:24Z</time>
      </trkpt>
      <trkpt lat="43.96856" lon="1.88519">
        <ele>218</ele>
        <time>2015-03-08T10:27:34Z</time>
      </trkpt>
      <trkpt lat="43.96718" lon="1.8857">
        <ele>223</ele>
        <time>2015-03-08T10:27:44Z</time>
      </trkpt>
      <trkpt lat="43.96557" lon="1.88579">
        <ele>232</ele>
        <time>2015-03-08T10:27:54Z</time>
      </trkpt>
      <trkpt lat="43.96451" lon="1.88572">
        <ele>237</ele>
        <time>2015-03-08T10:28:04Z</time>
      </trkpt>
      <trkpt lat="43.9631" lon="1.88608">
        <ele>245</ele>
        <time>2015-03-08T10:28:14Z</time>
      </trkpt>
      <trkpt lat="43.96241" lon="1.88598">
        <ele>249</ele>
        <time>2015-03-08T10:28:24Z</time>
      </trkpt>
      <trkpt lat="43.96207" lon="1.88651">
        <ele>249</ele>
        <time>2015-03-08T10:28:35Z</time>
      </trkpt>
      <trkpt lat="43.96141" lon="1.8875">
        <ele>242</ele>
        <time>2015-03-08T10:28:45Z</time>
      </trkpt>
      <trkpt lat="43.96029" lon="1.88837">
        <ele>232</ele>
        <time>2015-03-08T10:28:55Z</time>
      </trkpt>
      <trkpt lat="43.95919" lon="1.88944">
        <ele>222</ele>
        <time>2015-03-08T10:29:05Z</time>
      </trkpt>
      <trkpt lat="43.95813" lon="1.89028">
        <ele>212</ele>
        <time>2015-03-08T10:29:15Z</time>
      </trkpt>
      <trkpt lat="43.95752" lon="1.88964">
        <ele>206</ele>
        <time>2015-03-08T10:29:25Z</time>
      </trkpt>
      <trkpt lat="43.95782" lon="1.888">
        <ele>209</ele>
        <time>2015-03-08T10:29:35Z</time>
      </trkpt>
      <trkpt lat="43.95747" lon="1.88681">
        <ele>219</ele>
        <time>2015-03-08T10:29:45Z</time>
      </trkpt>
      <trkpt lat="43.95689" lon="1.88655">
        <ele>230</ele>
        <time>2015-03-08T10:29:55Z</time>
      </trkpt>
      <trkpt lat="43.95666" lon="1.88705">
        <ele>237</ele>
        <time>2015-03-08T10:30:05Z</time>
      </trkpt>
      <trkpt lat="43.95644" lon="1.88743">
        <ele>236</ele>
        <time>2015-03-08T10:30:15Z</time>
      </trkpt>
      <trkpt lat="43.95621" lon="1.88778">
        <ele>235</ele>
        <time>2015-03-08T10:30:25Z</time>
      </trkpt>
      <trkpt lat="43.95525" lon="1.88885">
        <ele>232</ele>
        <time>2015-03-08T10:30:36Z</time>
      </trkpt>
      <trkpt lat="43.95458" lon="1.88911">
        <ele>229</ele>
        <time>2015-03-08T10:30:47Z</time>
      </trkpt>
      <trkpt lat="43.954" lon="1.88912">
        <ele>223</ele>
        <time>2015-03-08T10:30:58Z</time>
      </trkpt>
      <trkpt lat="43.95351" lon="1.89016">
        <ele>223</ele>
        <time>2015-03-08T10:31:08Z</time>
      </trkpt>
      <trkpt lat="43.95317" lon="1.89096">
        <ele>219</ele>
        <time>2015-03-08T10:31:19Z</time>
      </trkpt>
      <trkpt lat="43.95312" lon="1.89153">
        <ele>212</ele>
        <time>2015-03-08T10:31:29Z</time>
      </trkpt>
      <trkpt lat="43.9523" lon="1.8914">
        <ele>203</ele>
        <time>2015-03-08T10:31:40Z</time>
      </trkpt>
      <trkpt lat="43.95138" lon="1.89139">
        <ele>192</ele>
        <time>2015-03-08T10:31:51Z</time>
      </trkpt>
      <trkpt lat="43.95121" lon="1.89295">
        <ele>185</ele>
        <time>2015-03-08T10:32:02Z</time>
      </trkpt>
      <trkpt lat="43.95228" lon="1.89377">
        <ele>185</ele>
        <time>2015-03-08T10:32:13Z</time>
      </trkpt>
      <trkpt lat="43.95275" lon="1.89518">
        <ele>185</ele>
        <time>2015-03-08T10:32:23Z</time>
      </trkpt>
      <trkpt lat="43.95361" lon="1.89646">
        <ele>197</ele>
        <time>2015-03-08T10:32:33Z</time>
      </trkpt>
      <trkpt lat="43.95415" lon="1.898">
        <ele>212</ele>
        <time>2015-03-08T10:32:44Z</time>
      </trkpt>
      <trkpt lat="43.95358" lon="1.89936">
        <ele>223</ele>
        <time>2015-03-08T10:32:54Z</time>
      </trkpt>
      <trkpt lat="43.95358" lon="1.89983">
        <ele>223</ele>
        <time>2015-03-08T10:33:04Z</time>
      </trkpt>
      <trkpt lat="43.95436" lon="1.89909">
        <ele>231</ele>
        <time>2015-03-08T10:33:15Z</time>
      </trkpt>
      <trkpt lat="43.95488" lon="1.89916">
        <ele>236</ele>
        <time>2015-03-08T10:33:25Z</time>
      </trkpt>
      <trkpt lat="43.95531" lon="1.90012">
        <ele>236</ele>
        <time>2015-03-08T10:33:35Z</time>
      </trkpt>
      <trkpt lat="43.95555" lon="1.9006">
        <ele>225</ele>
        <time>2015-03-08T10:33:46Z</time>
      </trkpt>
      <trkpt lat="43.95471" lon="1.90105">
        <ele>215</ele>
        <time>2015-03-08T10:33:56Z</time>
      </trkpt>
      <trkpt lat="43.95415" lon="1.90158">
        <ele>215</ele>
        <time>2015-03-08T10:34:06Z</time>
      </trkpt>
      <trkpt lat="43.95364" lon="1.90246">
        <ele>215</ele>
        <time>2015-03-08T10:34:16Z</time>
      </trkpt>
      <trkpt lat="43.95427" lon="1.90385">
        <ele>207</ele>
        <time>2015-03-08T10:34:26Z</time>
      </trkpt>
      <trkpt lat="43.95444" lon="1.90553">
        <ele>194</ele>
        <time>2015-03-08T10:34:36Z</time>
      </trkpt>
      <trkpt lat="43.95557" lon="1.90497">
        <ele>193</ele>
        <time>2015-03-08T10:34:46Z</time>
      </trkpt>
      <trkpt lat="43.95594" lon="1.90535">
        <ele>200</ele>
        <time>2015-03-08T10:34:56Z</time>
      </trkpt>
      <trkpt lat="43.95546" lon="1.90668">
        <ele>210</ele>
        <time>2015-03-08T10:35:06Z</time>
      </trkpt>
      <trkpt lat="43.9559" lon="1.90725">
        <ele>218</ele>
        <time>2015-03-08T10:35:16Z</time>
      </trkpt>
      <trkpt lat="43.95622" lon="1.90767">
        <ele>227</ele>
        <time>2015-03-08T10:35:28Z</time>
      </trkpt>
      <trkpt lat="43.95697" lon="1.90849">
        <ele>232</ele>
        <time>2015-03-08T10:35:39Z</time>
      </trkpt>
      <trkpt lat="43.95701" lon="1.90927">
        <ele>237</ele>
        <time>2015-03-08T10:35:49Z</time>
      </trkpt>
      <trkpt lat="43.95647" lon="1.91078">
        <ele>238</ele>
        <time>2015-03-08T10:35:59Z</time>
      </trkpt>
      <trkpt lat="43.95564" lon="1.91252">
        <ele>238</ele>
        <time>2015-03-08T10:36:09Z</time>
      </trkpt>
      <trkpt lat="43.95521" lon="1.91307">
        <ele>236</ele>
        <time>2015-03-08T10:36:19Z</time>
      </trkpt>
      <trkpt lat="43.95512" lon="1.91365">
        <ele>236</ele>
        <time>2015-03-08T10:36:29Z</time>
      </trkpt>
      <trkpt lat="43.95503" lon="1.91443">
        <ele>236</ele>
        <time>2015-03-08T10:36:39Z</time>
      </trkpt>
      <trkpt lat="43.95483" lon="1.91506">
        <ele>237</ele>
        <time>2015-03-08T10:36:49Z</time>
      </trkpt>
      <trkpt lat="43.95478" lon="1.91561">
        <ele>243</ele>
        <time>2015-03-08T10:36:59Z</time>
      </trkpt>
      <trkpt lat="43.95473" lon="1.91599">
        <ele>241</ele>
        <time>2015-03-08T10:37:09Z</time>
      </trkpt>
      <trkpt lat="43.95437" lon="1.91633">
        <ele>238</ele>
        <time>2015-03-08T10:37:19Z</time>
      </trkpt>
      <trkpt lat="43.95386" lon="1.91629">
        <ele>236</ele>
        <time>2015-03-08T10:37:29Z</time>
      </trkpt>
      <trkpt lat="43.95306" lon="1.9154">
        <ele>236</ele>
        <time>2015-03-08T10:37:39Z</time>
      </trkpt>
      <trkpt lat="43.95257" lon="1.91588">
        <ele>242</ele>
        <time>2015-03-08T10:37:50Z</time>
      </trkpt>
      <trkpt lat="43.95184" lon="1.91755">
        <ele>242</ele>
        <time>2015-03-08T10:38:00Z</time>
      </trkpt>
      <trkpt lat="43.95049" lon="1.91892">
        <ele>241</ele>
        <time>2015-03-08T10:38:10Z</time>
      </trkpt>
      <trkpt lat="43.94962" lon="1.92047">
        <ele>238</ele>
        <time>2015-03-08T10:38:20Z</time>
      </trkpt>
      <trkpt lat="43.9485" lon="1.92197">
        <ele>238</ele>
        <time>2015-03-08T10:38:30Z</time>
      </trkpt>
      <trkpt lat="43.94733" lon="1.92225">
        <ele>237</ele>
        <time>2015-03-08T10:38:40Z</time>
      </trkpt>
      <trkpt lat="43.94615" lon="1.92343">
        <ele>236</ele>
        <time>2015-03-08T10:38:50Z</time>
      </trkpt>
      <trkpt lat="43.94512" lon="1.92419">
        <ele>230</ele>
        <time>2015-03-08T10:39:00Z</time>
      </trkpt>
      <trkpt lat="43.94446" lon="1.92452">
        <ele>221</ele>
        <time>2015-03-08T10:39:10Z</time>
      </trkpt>
      <trkpt lat="43.94454" lon="1.92457">
        <ele>221</ele>
        <time>2015-03-08T10:39:21Z</time>
      </trkpt>
      <trkpt lat="43.9447" lon="1.92491">
        <ele>221</ele>
        <time>2015-03-08T10:39:31Z</time>
      </trkpt>
      <trkpt lat="43.94497" lon="1.92635">
        <ele>219</ele>
        <time>2015-03-08T10:39:41Z</time>
      </trkpt>
      <trkpt lat="43.945" lon="1.92775">
        <ele>211</ele>
        <time>2015-03-08T10:39:51Z</time>
      </trkpt>
      <trkpt lat="43.94471" lon="1.92894">
        <ele>202</ele>
        <time>2015-03-08T10:40:01Z</time>
      </trkpt>
      <trkpt lat="43.94417" lon="1.92992">
        <ele>197</ele>
        <time>2015-03-08T10:40:11Z</time>
      </trkpt>
      <trkpt lat="43.94452" lon="1.93115">
        <ele>187</ele>
        <time>2015-03-08T10:40:21Z</time>
      </trkpt>
      <trkpt lat="43.94493" lon="1.93192">
        <ele>181</ele>
        <time>2015-03-08T10:40:31Z</time>
      </trkpt>
      <trkpt lat="43.94587" lon="1.93152">
        <ele>176</ele>
        <time>2015-03-08T10:40:41Z</time>
      </trkpt>
      <trkpt lat="43.9471" lon="1.93083">
        <ele>174</ele>
        <time>2015-03-08T10:40:51Z</time>
      </trkpt>
      <trkpt lat="43.94811" lon="1.93087">
        <ele>174</ele>
        <time>2015-03-08T10:41:01Z</time>
      </trkpt>
      <trkpt lat="43.94858" lon="1.93085">
        <ele>171</ele>
        <time>2015-03-08T10:41:11Z</time>
      </trkpt>
      <trkpt lat="43.94922" lon="1.93084">
        <ele>169</ele>
        <time>2015-03-08T10:41:21Z</time>
      </trkpt>
      <trkpt lat="43.95055" lon="1.93087">
        <ele>169</ele>
        <time>2015-03-08T10:41:31Z</time>
      </trkpt>
      <trkpt lat="43.95164" lon="1.93137">
        <ele>169</ele>
        <time>2015-03-08T10:41:41Z</time>
      </trkpt>
      <trkpt lat="43.95196" lon="1.93179">
        <ele>168</ele>
        <time>2015-03-08T10:41:51Z</time>
      </trkpt>
      <trkpt lat="43.95192" lon="1.9318">
        <ele>168</ele>
        <time>2015-03-08T10:42:06Z</time>
      </trkpt>
      <trkpt lat="43.9519" lon="1.93178">
        <ele>168</ele>
        <time>2015-03-08T10:42:16Z</time>
      </trkpt>
      <trkpt lat="43.95148" lon="1.9315">
        <ele>169</ele>
        <time>2015-03-08T10:42:26Z</time>
      </trkpt>
      <trkpt lat="43.95169" lon="1.93125">
        <ele>169</ele>
        <time>2015-03-08T10:42:36Z</time>
      </trkpt>
      <trkpt lat="43.95181" lon="1.93146">
        <ele>169</ele>
        <time>2015-03-08T10:42:49Z</time>
      </trkpt>
      <trkpt lat="43.95245" lon="1.93202">
        <ele>170</ele>
        <time>2015-03-08T10:42:59Z</time>
      </trkpt>
      <trkpt lat="43.95285" lon="1.93282">
        <ele>171</ele>
        <time>2015-03-08T10:43:09Z</time>
      </trkpt>
      <trkpt lat="43.9521" lon="1.93388">
        <ele>171</ele>
        <time>2015-03-08T10:43:19Z</time>
      </trkpt>
      <trkpt lat="43.95123" lon="1.93483">
        <ele>166</ele>
        <time>2015-03-08T10:43:29Z</time>
      </trkpt>
      <trkpt lat="43.95119" lon="1.93518">
        <ele>164</ele>
        <time>2015-03-08T10:43:39Z</time>
      </trkpt>
      <trkpt lat="43.95181" lon="1.93539">
        <ele>163</ele>
        <time>2015-03-08T10:43:49Z</time>
      </trkpt>
      <trkpt lat="43.95251" lon="1.93596">
        <ele>163</ele>
        <time>2015-03-08T10:43:59Z</time>
      </trkpt>
      <trkpt lat="43.95299" lon="1.9361">
        <ele>166</ele>
        <time>2015-03-08T10:44:09Z</time>
      </trkpt>
      <trkpt lat="43.95366" lon="1.93517">
        <ele>171</ele>
        <time>2015-03-08T10:44:19Z</time>
      </trkpt>
      <trkpt lat="43.95465" lon="1.93545">
        <ele>178</ele>
        <time>2015-03-08T10:44:29Z</time>
      </trkpt>
      <trkpt lat="43.95589" lon="1.93658">
        <ele>188</ele>
        <time>2015-03-08T10:44:40Z</time>
      </trkpt>
      <trkpt lat="43.95701" lon="1.93821">
        <ele>188</ele>
        <time>2015-03-08T10:44:50Z</time>
      </trkpt>
      <trkpt lat="43.95766" lon="1.93902">
        <ele>188</ele>
        <time>2015-03-08T10:45:00Z</time>
      </trkpt>
      <trkpt lat="43.95775" lon="1.93989">
        <ele>184</ele>
        <time>2015-03-08T10:45:10Z</time>
      </trkpt>
      <trkpt lat="43.95841" lon="1.94035">
        <ele>188</ele>
        <time>2015-03-08T10:45:20Z</time>
      </trkpt>
      <trkpt lat="43.95971" lon="1.94064">
        <ele>190</ele>
        <time>2015-03-08T10:45:30Z</time>
      </trkpt>
      <trkpt lat="43.9609" lon="1.94148">
        <ele>191</ele>
        <time>2015-03-08T10:45:40Z</time>
      </trkpt>
      <trkpt lat="43.96148" lon="1.94244">
        <ele>196</ele>
        <time>2015-03-08T10:45:50Z</time>
      </trkpt>
      <trkpt lat="43.96213" lon="1.94294">
        <ele>198</ele>
        <time>2015-03-08T10:46:00Z</time>
      </trkpt>
      <trkpt lat="43.96182" lon="1.94399">
        <ele>198</ele>
        <time>2015-03-08T10:46:10Z</time>
      </trkpt>
      <trkpt lat="43.96141" lon="1.94538">
        <ele>198</ele>
        <time>2015-03-08T10:46:20Z</time>
      </trkpt>
      <trkpt lat="43.96118" lon="1.94636">
        <ele>198</ele>
        <time>2015-03-08T10:46:30Z</time>
      </trkpt>
      <trkpt lat="43.96034" lon="1.94781">
        <ele>198</ele>
        <time>2015-03-08T10:46:40Z</time>
      </trkpt>
      <trkpt lat="43.9597" lon="1.94926">
        <ele>201</ele>
        <time>2015-03-08T10:46:50Z</time>
      </trkpt>
      <trkpt lat="43.95913" lon="1.95089">
        <ele>206</ele>
        <time>2015-03-08T10:47:00Z</time>
      </trkpt>
      <trkpt lat="43.9585" lon="1.95268">
        <ele>206</ele>
        <time>2015-03-08T10:47:10Z</time>
      </trkpt>
      <trkpt lat="43.95794" lon="1.9533">
        <ele>202</ele>
        <time>2015-03-08T10:47:20Z</time>
      </trkpt>
      <trkpt lat="43.95723" lon="1.95253">
        <ele>200</ele>
        <time>2015-03-08T10:47:30Z</time>
      </trkpt>
      <trkpt lat="43.95685" lon="1.95142">
        <ele>200</ele>
        <time>2015-03-08T10:47:40Z</time>
      </trkpt>
      <trkpt lat="43.95635" lon="1.95203">
        <ele>200</ele>
        <time>2015-03-08T10:47:50Z</time>
      </trkpt>
      <trkpt lat="43.95655" lon="1.95356">
        <ele>193</ele>
        <time>2015-03-08T10:48:00Z</time>
      </trkpt>
      <trkpt lat="43.95672" lon="1.95417">
        <ele>190</ele>
        <time>2015-03-08T10:48:10Z</time>
      </trkpt>
      <trkpt lat="43.95526" lon="1.95366">
        <ele>188</ele>
        <time>2015-03-08T10:48:20Z</time>
      </trkpt>
      <trkpt lat="43.95328" lon="1.95326">
        <ele>186</ele>
        <time>2015-03-08T10:48:30Z</time>
      </trkpt>
      <trkpt lat="43.9519" lon="1.95298">
        <ele>182</ele>
        <time>2015-03-08T10:48:40Z</time>
      </trkpt>
      <trkpt lat="43.95095" lon="1.95212">
        <ele>180</ele>
        <time>2015-03-08T10:48:50Z</time>
      </trkpt>
      <trkpt lat="43.94988" lon="1.95128">
        <ele>177</ele>
        <time>2015-03-08T10:49:00Z</time>
      </trkpt>
      <trkpt lat="43.94864" lon="1.95122">
        <ele>177</ele>
        <time>2015-03-08T10:49:10Z</time>
      </trkpt>
      <trkpt lat="43.9476" lon="1.95151">
        <ele>179</ele>
        <time>2015-03-08T10:49:20Z</time>
      </trkpt>
      <trkpt lat="43.94667" lon="1.95118">
        <ele>183</ele>
        <time>2015-03-08T10:49:30Z</time>
      </trkpt>
      <trkpt lat="43.94576" lon="1.95043">
        <ele>191</ele>
        <time>2015-03-08T10:49:40Z</time>
      </trkpt>
      <trkpt lat="43.94494" lon="1.95011">
        <ele>191</ele>
        <time>2015-03-08T10:49:50Z</time>
      </trkpt>
      <trkpt lat="43.9439" lon="1.95025">
        <ele>191</ele>
        <time>2015-03-08T10:50:00Z</time>
      </trkpt>
      <trkpt lat="43.94333" lon="1.95012">
        <ele>191</ele>
        <time>2015-03-08T10:50:10Z</time>
      </trkpt>
      <trkpt lat="43.94317" lon="1.94918">
        <ele>197</ele>
        <time>2015-03-08T10:50:20Z</time>
      </trkpt>
      <trkpt lat="43.94304" lon="1.94809">
        <ele>203</ele>
        <time>2015-03-08T10:50:30Z</time>
      </trkpt>
      <trkpt lat="43.9432" lon="1.94778">
        <ele>204</ele>
        <time>2015-03-08T10:50:46Z</time>
      </trkpt>
      <trkpt lat="43.9432" lon="1.94779">
        <ele>204</ele>
        <time>2015-03-08T10:51:00Z</time>
      </trkpt>
      <trkpt lat="43.9432" lon="1.94781">
        <ele>204</ele>
        <time>2015-03-08T10:51:17Z</time>
      </trkpt>
      <trkpt lat="43.9432" lon="1.94782">
        <ele>205</ele>
        <time>2015-03-08T10:51:38Z</time>
      </trkpt>
      <trkpt lat="43.9432" lon="1.94784">
        <ele>205</ele>
        <time>2015-03-08T10:52:07Z</time>
      </trkpt>
      <trkpt lat="43.94321" lon="1.94785">
        <ele>205</ele>
        <time>2015-03-08T10:52:42Z</time>
      </trkpt>
      <trkpt lat="43.94321" lon="1.94787">
        <ele>206</ele>
        <time>2015-03-08T10:54:22Z</time>
      </trkpt>
      <trkpt lat="43.94322" lon="1.94787">
        <ele>206</ele>
        <time>2015-03-08T10:57:35Z</time>
      </trkpt>
      <trkpt lat="43.94321" lon="1.94785">
        <ele>206</ele>
        <time>2015-03-08T11:01:12Z</time>
      </trkpt>
      <trkpt lat="43.94322" lon="1.94783">
        <ele>209</ele>
        <time>2015-03-08T11:06:41Z</time>
      </trkpt>
      <trkpt lat="43.94323" lon="1.94783">
        <ele>209</ele>
        <time>2015-03-08T11:12:36Z</time>
      </trkpt>
      <trkpt lat="43.94324" lon="1.94783">
        <ele>210</ele>
        <time>2015-03-08T11:16:36Z</time>
      </trkpt>
      <trkpt lat="43.94323" lon="1.94782">
        <ele>211</ele>
        <time>2015-03-08T11:21:59Z</time>
      </trkpt>
      <trkpt lat="43.94325" lon="1.94782">
        <ele>211</ele>
        <time>2015-03-08T11:22:24Z</time>
      </trkpt>
      <trkpt lat="43.94363" lon="1.94756">
        <ele>211</ele>
        <time>2015-03-08T11:22:34Z</time>
      </trkpt>
      <trkpt lat="43.94449" lon="1.94704">
        <ele>211</ele>
        <time>2015-03-08T11:22:44Z</time>
      </trkpt>
      <trkpt lat="43.94515" lon="1.94689">
        <ele>211</ele>
        <time>2015-03-08T11:22:54Z</time>
      </trkpt>
      <trkpt lat="43.94464" lon="1.94637">
        <ele>211</ele>
        <time>2015-03-08T11:23:04Z</time>
      </trkpt>
      <trkpt lat="43.94448" lon="1.94529">
        <ele>211</ele>
        <time>2015-03-08T11:23:14Z</time>
      </trkpt>
      <trkpt lat="43.94487" lon="1.94365">
        <ele>206</ele>
        <time>2015-03-08T11:23:24Z</time>
      </trkpt>
      <trkpt lat="43.94519" lon="1.94256">
        <ele>196</ele>
        <time>2015-03-08T11:23:34Z</time>
      </trkpt>
      <trkpt lat="43.94569" lon="1.94242">
        <ele>188</ele>
        <time>2015-03-08T11:23:44Z</time>
      </trkpt>
      <trkpt lat="43.94621" lon="1.9412">
        <ele>185</ele>
        <time>2015-03-08T11:23:54Z</time>
      </trkpt>
      <trkpt lat="43.94685" lon="1.93979">
        <ele>185</ele>
        <time>2015-03-08T11:24:04Z</time>
      </trkpt>
      <trkpt lat="43.94743" lon="1.93927">
        <ele>185</ele>
        <time>2015-03-08T11:24:14Z</time>
      </trkpt>
      <trkpt lat="43.94839" lon="1.9386">
        <ele>185</ele>
        <time>2015-03-08T11:24:24Z</time>
      </trkpt>
      <trkpt lat="43.94945" lon="1.93756">
        <ele>180</ele>
        <time>2015-03-08T11:24:34Z</time>
      </trkpt>
      <trkpt lat="43.95045" lon="1.93666">
        <ele>170</ele>
        <time>2015-03-08T11:24:44Z</time>
      </trkpt>
      <trkpt lat="43.95111" lon="1.93493">
        <ele>168</ele>
        <time>2015-03-08T11:24:54Z</time>
      </trkpt>
      <trkpt lat="43.95223" lon="1.93369">
        <ele>168</ele>
        <time>2015-03-08T11:25:04Z</time>
      </trkpt>
      <trkpt lat="43.95324" lon="1.93231">
        <ele>169</ele>
        <time>2015-03-08T11:25:16Z</time>
      </trkpt>
      <trkpt lat="43.95301" lon="1.93174">
        <ele>169</ele>
        <time>2015-03-08T11:25:26Z</time>
      </trkpt>
      <trkpt lat="43.95401" lon="1.93073">
        <ele>169</ele>
        <time>2015-03-08T11:25:36Z</time>
      </trkpt>
      <trkpt lat="43.95522" lon="1.92965">
        <ele>169</ele>
        <time>2015-03-08T11:25:46Z</time>
      </trkpt>
      <trkpt lat="43.95634" lon="1.9283">
        <ele>169</ele>
        <time>2015-03-08T11:25:56Z</time>
      </trkpt>
      <trkpt lat="43.95754" lon="1.92696">
        <ele>171</ele>
        <time>2015-03-08T11:26:06Z</time>
      </trkpt>
      <trkpt lat="43.95869" lon="1.92551">
        <ele>173</ele>
        <time>2015-03-08T11:26:16Z</time>
      </trkpt>
      <trkpt lat="43.9596" lon="1.92388">
        <ele>174</ele>
        <time>2015-03-08T11:26:26Z</time>
      </trkpt>
      <trkpt lat="43.96002" lon="1.92239">
        <ele>176</ele>
        <time>2015-03-08T11:26:36Z</time>
      </trkpt>
      <trkpt lat="43.95969" lon="1.92046">
        <ele>179</ele>
        <time>2015-03-08T11:26:46Z</time>
      </trkpt>
      <trkpt lat="43.95974" lon="1.91972">
        <ele>181</ele>
        <time>2015-03-08T11:26:56Z</time>
      </trkpt>
      <trkpt lat="43.96069" lon="1.91979">
        <ele>187</ele>
        <time>2015-03-08T11:27:06Z</time>
      </trkpt>
      <trkpt lat="43.96172" lon="1.91986">
        <ele>187</ele>
        <time>2015-03-08T11:27:16Z</time>
      </trkpt>
      <trkpt lat="43.96265" lon="1.92013">
        <ele>187</ele>
        <time>2015-03-08T11:27:26Z</time>
      </trkpt>
      <trkpt lat="43.9632" lon="1.92039">
        <ele>190</ele>
        <time>2015-03-08T11:27:36Z</time>
      </trkpt>
      <trkpt lat="43.96383" lon="1.92014">
        <ele>200</ele>
        <time>2015-03-08T11:27:46Z</time>
      </trkpt>
      <trkpt lat="43.9641" lon="1.92044">
        <ele>207</ele>
        <time>2015-03-08T11:27:56Z</time>
      </trkpt>
      <trkpt lat="43.96434" lon="1.92041">
        <ele>214</ele>
        <time>2015-03-08T11:28:06Z</time>
      </trkpt>
      <trkpt lat="43.96464" lon="1.91946">
        <ele>218</ele>
        <time>2015-03-08T11:28:16Z</time>
      </trkpt>
      <trkpt lat="43.96582" lon="1.91905">
        <ele>218</ele>
        <time>2015-03-08T11:28:26Z</time>
      </trkpt>
      <trkpt lat="43.96684" lon="1.91812">
        <ele>220</ele>
        <time>2015-03-08T11:28:36Z</time>
      </trkpt>
      <trkpt lat="43.96767" lon="1.91688">
        <ele>221</ele>
        <time>2015-03-08T11:28:46Z</time>
      </trkpt>
      <trkpt lat="43.96766" lon="1.91518">
        <ele>221</ele>
        <time>2015-03-08T11:28:56Z</time>
      </trkpt>
      <trkpt lat="43.96849" lon="1.9147">
        <ele>222</ele>
        <time>2015-03-08T11:29:06Z</time>
      </trkpt>
      <trkpt lat="43.96994" lon="1.91402">
        <ele>225</ele>
        <time>2015-03-08T11:29:16Z</time>
      </trkpt>
      <trkpt lat="43.97148" lon="1.91336">
        <ele>235</ele>
        <time>2015-03-08T11:29:26Z</time>
      </trkpt>
      <trkpt lat="43.9727" lon="1.91376">
        <ele>243</ele>
        <time>2015-03-08T11:29:36Z</time>
      </trkpt>
      <trkpt lat="43.97382" lon="1.91298">
        <ele>243</ele>
        <time>2015-03-08T11:29:46Z</time>
      </trkpt>
      <trkpt lat="43.97492" lon="1.91233">
        <ele>239</ele>
        <time>2015-03-08T11:29:56Z</time>
      </trkpt>
      <trkpt lat="43.97556" lon="1.91156">
        <ele>239</ele>
        <time>2015-03-08T11:30:06Z</time>
      </trkpt>
      <trkpt lat="43.97644" lon="1.90988">
        <ele>231</ele>
        <time>2015-03-08T11:30:16Z</time>
      </trkpt>
      <trkpt lat="43.97685" lon="1.90825">
        <ele>230</ele>
        <time>2015-03-08T11:30:26Z</time>
      </trkpt>
      <trkpt lat="43.97772" lon="1.90762">
        <ele>230</ele>
        <time>2015-03-08T11:30:36Z</time>
      </trkpt>
      <trkpt lat="43.97849" lon="1.90676">
        <ele>230</ele>
        <time>2015-03-08T11:30:46Z</time>
      </trkpt>
      <trkpt lat="43.97896" lon="1.90607">
        <ele>227</ele>
        <time>2015-03-08T11:30:56Z</time>
      </trkpt>
      <trkpt lat="43.97952" lon="1.90535">
        <ele>225</ele>
        <time>2015-03-08T11:31:06Z</time>
      </trkpt>
      <trkpt lat="43.98036" lon="1.90388">
        <ele>221</ele>
        <time>2015-03-08T11:31:16Z</time>
      </trkpt>
      <trkpt lat="43.98077" lon="1.90298">
        <ele>220</ele>
        <time>2015-03-08T11:31:26Z</time>
      </trkpt>
      <trkpt lat="43.97979" lon="1.90226">
        <ele>220</ele>
        <time>2015-03-08T11:31:36Z</time>
      </trkpt>
      <trkpt lat="43.97859" lon="1.90147">
        <ele>218</ele>
        <time>2015-03-08T11:31:46Z</time>
      </trkpt>
      <trkpt lat="43.97788" lon="1.90074">
        <ele>210</ele>
        <time>2015-03-08T11:31:56Z</time>
      </trkpt>
      <trkpt lat="43.97797" lon="1.90041">
        <ele>207</ele>
        <time>2015-03-08T11:32:06Z</time>
      </trkpt>
      <trkpt lat="43.97777" lon="1.90145">
        <ele>207</ele>
        <time>2015-03-08T11:32:16Z</time>
      </trkpt>
      <trkpt lat="43.97686" lon="1.90187">
        <ele>207</ele>
        <time>2015-03-08T11:32:26Z</time>
      </trkpt>
      <trkpt lat="43.97572" lon="1.90188">
        <ele>207</ele>
        <time>2015-03-08T11:32:36Z</time>
      </trkpt>
      <trkpt lat="43.97471" lon="1.90216">
        <ele>208</ele>
        <time>2015-03-08T11:32:46Z</time>
      </trkpt>
      <trkpt lat="43.97416" lon="1.90208">
        <ele>212</ele>
        <time>2015-03-08T11:32:56Z</time>
      </trkpt>
      <trkpt lat="43.97325" lon="1.90131">
        <ele>214</ele>
        <time>2015-03-08T11:33:06Z</time>
      </trkpt>
      <trkpt lat="43.97275" lon="1.90094">
        <ele>219</ele>
        <time>2015-03-08T11:33:17Z</time>
      </trkpt>
      <trkpt lat="43.97273" lon="1.90094">
        <ele>222</ele>
        <time>2015-03-08T11:33:35Z</time>
      </trkpt>
      <trkpt lat="43.97204" lon="1.9003">
        <ele>226</ele>
        <time>2015-03-08T11:33:45Z</time>
      </trkpt>
      <trkpt lat="43.97104" lon="1.89928">
        <ele>233</ele>
        <time>2015-03-08T11:33:55Z</time>
      </trkpt>
      <trkpt lat="43.97076" lon="1.89777">
        <ele>239</ele>
        <time>2015-03-08T11:34:05Z</time>
      </trkpt>
      <trkpt lat="43.97169" lon="1.89645">
        <ele>239</ele>
        <time>2015-03-08T11:34:16Z</time>
      </trkpt>
      <trkpt lat="43.97273" lon="1.89512">
        <ele>243</ele>
        <time>2015-03-08T11:34:26Z</time>
      </trkpt>
      <trkpt lat="43.97354" lon="1.89394">
        <ele>245</ele>
        <time>2015-03-08T11:34:36Z</time>
      </trkpt>
      <trkpt lat="43.97316" lon="1.89276">
        <ele>248</ele>
        <time>2015-03-08T11:34:47Z</time>
      </trkpt>
      <trkpt lat="43.97287" lon="1.8909">
        <ele>248</ele>
        <time>2015-03-08T11:34:58Z</time>
      </trkpt>
      <trkpt lat="43.97245" lon="1.88912">
        <ele>240</ele>
        <time>2015-03-08T11:35:08Z</time>
      </trkpt>
      <trkpt lat="43.97202" lon="1.88737">
        <ele>230</ele>
        <time>2015-03-08T11:35:18Z</time>
      </trkpt>
      <trkpt lat="43.97171" lon="1.88589">
        <ele>224</ele>
        <time>2015-03-08T11:35:29Z</time>
      </trkpt>
      <trkpt lat="43.97162" lon="1.88449">
        <ele>224</ele>
        <time>2015-03-08T11:35:39Z</time>
      </trkpt>
      <trkpt lat="43.97116" lon="1.88301">
        <ele>224</ele>
        <time>2015-03-08T11:35:49Z</time>
      </trkpt>
      <trkpt lat="43.97093" lon="1.88142">
        <ele>227</ele>
        <time>2015-03-08T11:35:59Z</time>
      </trkpt>
      <trkpt lat="43.97079" lon="1.88008">
        <ele>232</ele>
        <time>2015-03-08T11:36:09Z</time>
      </trkpt>
      <trkpt lat="43.97045" lon="1.87905">
        <ele>239</ele>
        <time>2015-03-08T11:36:19Z</time>
      </trkpt>
      <trkpt lat="43.96972" lon="1.87828">
        <ele>240</ele>
        <time>2015-03-08T11:36:30Z</time>
      </trkpt>
      <trkpt lat="43.96908" lon="1.87736">
        <ele>240</ele>
        <time>2015-03-08T11:36:40Z</time>
      </trkpt>
      <trkpt lat="43.96833" lon="1.87619">
        <ele>240</ele>
        <time>2015-03-08T11:36:51Z</time>
      </trkpt>
      <trkpt lat="43.96773" lon="1.87475">
        <ele>232</ele>
        <time>2015-03-08T11:37:01Z</time>
      </trkpt>
      <trkpt lat="43.96751" lon="1.87309">
        <ele>225</ele>
        <time>2015-03-08T11:37:11Z</time>
      </trkpt>
      <trkpt lat="43.96719" lon="1.87214">
        <ele>220</ele>
        <time>2015-03-08T11:37:21Z</time>
      </trkpt>
      <trkpt lat="43.96674" lon="1.87184">
        <ele>220</ele>
        <time>2015-03-08T11:37:31Z</time>
      </trkpt>
      <trkpt lat="43.96646" lon="1.87193">
        <ele>220</ele>
        <time>2015-03-08T11:37:41Z</time>
      </trkpt>
      <trkpt lat="43.96613" lon="1.87294">
        <ele>227</ele>
        <time>2015-03-08T11:37:51Z</time>
      </trkpt>
      <trkpt lat="43.96587" lon="1.87375">
        <ele>229</ele>
        <time>2015-03-08T11:38:01Z</time>
      </trkpt>
      <trkpt lat="43.96553" lon="1.87423">
        <ele>230</ele>
        <time>2015-03-08T11:38:11Z</time>
      </trkpt>
      <trkpt lat="43.96517" lon="1.87446">
        <ele>230</ele>
        <time>2015-03-08T11:38:21Z</time>
      </trkpt>
      <trkpt lat="43.96449" lon="1.87489">
        <ele>233</ele>
        <time>2015-03-08T11:38:31Z</time>
      </trkpt>
      <trkpt lat="43.9637" lon="1.87502">
        <ele>234</ele>
        <time>2015-03-08T11:38:41Z</time>
      </trkpt>
      <trkpt lat="43.96302" lon="1.87497">
        <ele>239</ele>
        <time>2015-03-08T11:38:51Z</time>
      </trkpt>
      <trkpt lat="43.96242" lon="1.87457">
        <ele>248</ele>
        <time>2015-03-08T11:39:01Z</time>
      </trkpt>
      <trkpt lat="43.96169" lon="1.87455">
        <ele>258</ele>
        <time>2015-03-08T11:39:11Z</time>
      </trkpt>
      <trkpt lat="43.96118" lon="1.87498">
        <ele>268</ele>
        <time>2015-03-08T11:39:21Z</time>
      </trkpt>
      <trkpt lat="43.96071" lon="1.87572">
        <ele>282</ele>
        <time>2015-03-08T11:39:31Z</time>
      </trkpt>
      <trkpt lat="43.96009" lon="1.87584">
        <ele>287</ele>
        <time>2015-03-08T11:39:41Z</time>
      </trkpt>
      <trkpt lat="43.95988" lon="1.87546">
        <ele>287</ele>
        <time>2015-03-08T11:39:51Z</time>
      </trkpt>
      <trkpt lat="43.95957" lon="1.87356">
        <ele>287</ele>
        <time>2015-03-08T11:40:02Z</time>
      </trkpt>
      <trkpt lat="43.95898" lon="1.87179">
        <ele>287</ele>
        <time>2015-03-08T11:40:12Z</time>
      </trkpt>
      <trkpt lat="43.95786" lon="1.87124">
        <ele>287</ele>
        <time>2015-03-08T11:40:22Z</time>
      </trkpt>
      <trkpt lat="43.95731" lon="1.87077">
        <ele>286</ele>
        <time>2015-03-08T11:40:32Z</time>
      </trkpt>
      <trkpt lat="43.95668" lon="1.87149">
        <ele>286</ele>
        <time>2015-03-08T11:40:42Z</time>
      </trkpt>
      <trkpt lat="43.95609" lon="1.87196">
        <ele>288</ele>
        <time>2015-03-08T11:40:52Z</time>
      </trkpt>
      <trkpt lat="43.95596" lon="1.87154">
        <ele>289</ele>
        <time>2015-03-08T11:41:03Z</time>
      </trkpt>
      <trkpt lat="43.95551" lon="1.8712">
        <ele>289</ele>
        <time>2015-03-08T11:41:14Z</time>
      </trkpt>
      <trkpt lat="43.95441" lon="1.86965">
        <ele>283</ele>
        <time>2015-03-08T11:41:24Z</time>
      </trkpt>
      <trkpt lat="43.9537" lon="1.86859">
        <ele>280</ele>
        <time>2015-03-08T11:41:34Z</time>
      </trkpt>
      <trkpt lat="43.95338" lon="1.86939">
        <ele>280</ele>
        <time>2015-03-08T11:41:44Z</time>
      </trkpt>
      <trkpt lat="43.95308" lon="1.86897">
        <ele>280</ele>
        <time>2015-03-08T11:41:54Z</time>
      </trkpt>
      <trkpt lat="43.95321" lon="1.86852">
        <ele>278</ele>
        <time>2015-03-08T11:42:15Z</time>
      </trkpt>
      <trkpt lat="43.95325" lon="1.8685">
        <ele>276</ele>
        <time>2015-03-08T11:42:26Z</time>
      </trkpt>
      <trkpt lat="43.95329" lon="1.8685">
        <ele>276</ele>
        <time>2015-03-08T11:42:39Z</time>
      </trkpt>
      <trkpt lat="43.9533" lon="1.86851">
        <ele>276</ele>
        <time>2015-03-08T11:43:07Z</time>
      </trkpt>
      <trkpt lat="43.95329" lon="1.86853">
        <ele>276</ele>
        <time>2015-03-08T11:43:30Z</time>
      </trkpt>
      <trkpt lat="43.95328" lon="1.86854">
        <ele>276</ele>
        <time>2015-03-08T11:44:02Z</time>
      </trkpt>
      <trkpt lat="43.95327" lon="1.86854">
        <ele>277</ele>
        <time>2015-03-08T11:44:30Z</time>
      </trkpt>
      <trkpt lat="43.95325" lon="1.86855">
        <ele>277</ele>
        <time>2015-03-08T11:44:55Z</time>
      </trkpt>
      <trkpt lat="43.95325" lon="1.86857">
        <ele>279</ele>
        <time>2015-03-08T11:45:05Z</time>
      </trkpt>
      <trkpt lat="43.95325" lon="1.86855">
        <ele>281</ele>
        <time>2015-03-08T11:46:10Z</time>
      </trkpt>
      <trkpt lat="43.95325" lon="1.86854">
        <ele>281</ele>
        <time>2015-03-08T11:46:27Z</time>
      </trkpt>
      <trkpt lat="43.95324" lon="1.86852">
        <ele>280</ele>
        <time>2015-03-08T11:46:43Z</time>
      </trkpt>
      <trkpt lat="43.95324" lon="1.86851">
        <ele>279</ele>
        <time>2015-03-08T11:47:00Z</time>
      </trkpt>
      <trkpt lat="43.95325" lon="1.86852">
        <ele>277</ele>
        <time>2015-03-08T11:50:01Z</time>
      </trkpt>
      <trkpt lat="43.95324" lon="1.86852">
        <ele>274</ele>
        <time>2015-03-08T11:51:17Z</time>
      </trkpt>
      <trkpt lat="43.95324" lon="1.86852">
        <ele>274</ele>
        <time>2015-03-08T11:51:18Z</time>
      </trkpt>
    </trkseg>
  </trk>
</gpx>